<?xml version="1.0" encoding="UTF-8" standalone="no" ?>
<gpx xmlns="http://www.topografix.com/GPX/1/1" xmlns:xsi="http://www.w3.org/2001/XMLSchema-instance" xsi:schemaLocation="http://www.topografix.com/GPX/1/1 http://www.topografix.com/GPX/1/1/gpx.xsd" version="1.1" creator="VisuGPX - https://www.visugpx.com">
  <metadata>
    <name>Villers-Farlay - Cramans - Four tuilier gallo-romain</name>
    <desc><![CDATA[Randonnée effectuée le 4 octobre 2018]]></desc>
  </metadata>
  <trk>
    <name><![CDATA[20181004183659-LG3oh]]></name>
    <trkseg>
      <trkpt lat="46.99972" lon="5.75076">
        <ele>232</ele>
        <time>2018-10-04T12:23:39Z</time>
      </trkpt>
      <trkpt lat="46.99977" lon="5.75056">
        <ele>231</ele>
        <time>2018-10-04T12:23:45Z</time>
      </trkpt>
      <trkpt lat="46.99981" lon="5.75053">
        <ele>229</ele>
        <time>2018-10-04T12:23:50Z</time>
      </trkpt>
      <trkpt lat="46.99993" lon="5.75041">
        <ele>228</ele>
        <time>2018-10-04T12:24:02Z</time>
      </trkpt>
      <trkpt lat="46.99998" lon="5.75038">
        <ele>228</ele>
        <time>2018-10-04T12:24:06Z</time>
      </trkpt>
      <trkpt lat="47.00003" lon="5.75034">
        <ele>228</ele>
        <time>2018-10-04T12:24:09Z</time>
      </trkpt>
      <trkpt lat="47.00007" lon="5.75032">
        <ele>228</ele>
        <time>2018-10-04T12:24:13Z</time>
      </trkpt>
      <trkpt lat="47.00017" lon="5.75026">
        <ele>228</ele>
        <time>2018-10-04T12:24:22Z</time>
      </trkpt>
      <trkpt lat="47.00021" lon="5.75024">
        <ele>228</ele>
        <time>2018-10-04T12:24:26Z</time>
      </trkpt>
      <trkpt lat="47.00027" lon="5.75022">
        <ele>227</ele>
        <time>2018-10-04T12:24:33Z</time>
      </trkpt>
      <trkpt lat="47.00032" lon="5.75024">
        <ele>227</ele>
        <time>2018-10-04T12:24:36Z</time>
      </trkpt>
      <trkpt lat="47.00037" lon="5.75025">
        <ele>227</ele>
        <time>2018-10-04T12:24:41Z</time>
      </trkpt>
      <trkpt lat="47.00042" lon="5.75027">
        <ele>227</ele>
        <time>2018-10-04T12:24:45Z</time>
      </trkpt>
      <trkpt lat="47.00046" lon="5.75031">
        <ele>226</ele>
        <time>2018-10-04T12:24:48Z</time>
      </trkpt>
      <trkpt lat="47.00049" lon="5.75035">
        <ele>226</ele>
        <time>2018-10-04T12:24:52Z</time>
      </trkpt>
      <trkpt lat="47.00054" lon="5.7504">
        <ele>226</ele>
        <time>2018-10-04T12:24:57Z</time>
      </trkpt>
      <trkpt lat="47.00058" lon="5.75044">
        <ele>225</ele>
        <time>2018-10-04T12:25:01Z</time>
      </trkpt>
      <trkpt lat="47.00062" lon="5.75049">
        <ele>225</ele>
        <time>2018-10-04T12:25:05Z</time>
      </trkpt>
      <trkpt lat="47.00066" lon="5.75052">
        <ele>225</ele>
        <time>2018-10-04T12:25:08Z</time>
      </trkpt>
      <trkpt lat="47.0007" lon="5.75057">
        <ele>224</ele>
        <time>2018-10-04T12:25:12Z</time>
      </trkpt>
      <trkpt lat="47.00074" lon="5.75064">
        <ele>224</ele>
        <time>2018-10-04T12:25:19Z</time>
      </trkpt>
      <trkpt lat="47.00077" lon="5.7507">
        <ele>225</ele>
        <time>2018-10-04T12:25:23Z</time>
      </trkpt>
      <trkpt lat="47.00087" lon="5.75081">
        <ele>223</ele>
        <time>2018-10-04T12:25:35Z</time>
      </trkpt>
      <trkpt lat="47.0009" lon="5.75086">
        <ele>223</ele>
        <time>2018-10-04T12:25:39Z</time>
      </trkpt>
      <trkpt lat="47.00093" lon="5.75092">
        <ele>223</ele>
        <time>2018-10-04T12:25:43Z</time>
      </trkpt>
      <trkpt lat="47.00096" lon="5.75097">
        <ele>223</ele>
        <time>2018-10-04T12:25:47Z</time>
      </trkpt>
      <trkpt lat="47.00099" lon="5.75103">
        <ele>223</ele>
        <time>2018-10-04T12:25:50Z</time>
      </trkpt>
      <trkpt lat="47.00102" lon="5.75108">
        <ele>223</ele>
        <time>2018-10-04T12:25:54Z</time>
      </trkpt>
      <trkpt lat="47.0011" lon="5.75118">
        <ele>224</ele>
        <time>2018-10-04T12:26:02Z</time>
      </trkpt>
      <trkpt lat="47.00115" lon="5.75123">
        <ele>224</ele>
        <time>2018-10-04T12:26:07Z</time>
      </trkpt>
      <trkpt lat="47.00119" lon="5.75128">
        <ele>224</ele>
        <time>2018-10-04T12:26:11Z</time>
      </trkpt>
      <trkpt lat="47.00126" lon="5.75139">
        <ele>224</ele>
        <time>2018-10-04T12:26:20Z</time>
      </trkpt>
      <trkpt lat="47.00133" lon="5.75148">
        <ele>225</ele>
        <time>2018-10-04T12:26:27Z</time>
      </trkpt>
      <trkpt lat="47.00137" lon="5.75152">
        <ele>225</ele>
        <time>2018-10-04T12:26:31Z</time>
      </trkpt>
      <trkpt lat="47.00141" lon="5.75155">
        <ele>225</ele>
        <time>2018-10-04T12:26:35Z</time>
      </trkpt>
      <trkpt lat="47.0015" lon="5.75163">
        <ele>225</ele>
        <time>2018-10-04T12:26:43Z</time>
      </trkpt>
      <trkpt lat="47.00154" lon="5.75168">
        <ele>225</ele>
        <time>2018-10-04T12:26:47Z</time>
      </trkpt>
      <trkpt lat="47.00163" lon="5.75177">
        <ele>226</ele>
        <time>2018-10-04T12:26:55Z</time>
      </trkpt>
      <trkpt lat="47.00167" lon="5.75181">
        <ele>225</ele>
        <time>2018-10-04T12:26:59Z</time>
      </trkpt>
      <trkpt lat="47.00172" lon="5.75185">
        <ele>227</ele>
        <time>2018-10-04T12:27:03Z</time>
      </trkpt>
      <trkpt lat="47.00185" lon="5.75199">
        <ele>226</ele>
        <time>2018-10-04T12:27:16Z</time>
      </trkpt>
      <trkpt lat="47.00189" lon="5.75203">
        <ele>225</ele>
        <time>2018-10-04T12:27:20Z</time>
      </trkpt>
      <trkpt lat="47.00197" lon="5.7521">
        <ele>225</ele>
        <time>2018-10-04T12:27:27Z</time>
      </trkpt>
      <trkpt lat="47.00207" lon="5.75218">
        <ele>226</ele>
        <time>2018-10-04T12:27:35Z</time>
      </trkpt>
      <trkpt lat="47.00212" lon="5.75223">
        <ele>225</ele>
        <time>2018-10-04T12:27:39Z</time>
      </trkpt>
      <trkpt lat="47.00215" lon="5.75226">
        <ele>225</ele>
        <time>2018-10-04T12:27:42Z</time>
      </trkpt>
      <trkpt lat="47.00224" lon="5.75235">
        <ele>225</ele>
        <time>2018-10-04T12:27:50Z</time>
      </trkpt>
      <trkpt lat="47.00228" lon="5.7524">
        <ele>225</ele>
        <time>2018-10-04T12:27:54Z</time>
      </trkpt>
      <trkpt lat="47.00232" lon="5.75245">
        <ele>225</ele>
        <time>2018-10-04T12:27:58Z</time>
      </trkpt>
      <trkpt lat="47.00266" lon="5.7528">
        <ele>229</ele>
        <time>2018-10-04T12:28:29Z</time>
      </trkpt>
      <trkpt lat="47.00275" lon="5.75289">
        <ele>229</ele>
        <time>2018-10-04T12:28:37Z</time>
      </trkpt>
      <trkpt lat="47.00303" lon="5.75323">
        <ele>230</ele>
        <time>2018-10-04T12:29:04Z</time>
      </trkpt>
      <trkpt lat="47.00307" lon="5.75327">
        <ele>229</ele>
        <time>2018-10-04T12:29:08Z</time>
      </trkpt>
      <trkpt lat="47.00311" lon="5.75332">
        <ele>230</ele>
        <time>2018-10-04T12:29:12Z</time>
      </trkpt>
      <trkpt lat="47.00315" lon="5.75337">
        <ele>230</ele>
        <time>2018-10-04T12:29:16Z</time>
      </trkpt>
      <trkpt lat="47.00321" lon="5.75344">
        <ele>230</ele>
        <time>2018-10-04T12:29:23Z</time>
      </trkpt>
      <trkpt lat="47.00325" lon="5.75349">
        <ele>230</ele>
        <time>2018-10-04T12:29:27Z</time>
      </trkpt>
      <trkpt lat="47.00338" lon="5.75364">
        <ele>231</ele>
        <time>2018-10-04T12:29:39Z</time>
      </trkpt>
      <trkpt lat="47.00341" lon="5.75368">
        <ele>231</ele>
        <time>2018-10-04T12:29:42Z</time>
      </trkpt>
      <trkpt lat="47.00349" lon="5.75378">
        <ele>232</ele>
        <time>2018-10-04T12:29:50Z</time>
      </trkpt>
      <trkpt lat="47.00353" lon="5.75384">
        <ele>232</ele>
        <time>2018-10-04T12:29:54Z</time>
      </trkpt>
      <trkpt lat="47.00357" lon="5.7539">
        <ele>232</ele>
        <time>2018-10-04T12:29:58Z</time>
      </trkpt>
      <trkpt lat="47.00384" lon="5.75435">
        <ele>232</ele>
        <time>2018-10-04T12:30:29Z</time>
      </trkpt>
      <trkpt lat="47.00387" lon="5.75441">
        <ele>232</ele>
        <time>2018-10-04T12:30:33Z</time>
      </trkpt>
      <trkpt lat="47.00391" lon="5.75447">
        <ele>232</ele>
        <time>2018-10-04T12:30:38Z</time>
      </trkpt>
      <trkpt lat="47.00394" lon="5.75453">
        <ele>232</ele>
        <time>2018-10-04T12:30:42Z</time>
      </trkpt>
      <trkpt lat="47.00402" lon="5.75464">
        <ele>232</ele>
        <time>2018-10-04T12:30:51Z</time>
      </trkpt>
      <trkpt lat="47.00406" lon="5.75468">
        <ele>232</ele>
        <time>2018-10-04T12:30:55Z</time>
      </trkpt>
      <trkpt lat="47.00415" lon="5.75476">
        <ele>232</ele>
        <time>2018-10-04T12:31:03Z</time>
      </trkpt>
      <trkpt lat="47.00425" lon="5.75481">
        <ele>232</ele>
        <time>2018-10-04T12:31:11Z</time>
      </trkpt>
      <trkpt lat="47.0045" lon="5.75489">
        <ele>232</ele>
        <time>2018-10-04T12:31:31Z</time>
      </trkpt>
      <trkpt lat="47.0046" lon="5.75489">
        <ele>233</ele>
        <time>2018-10-04T12:31:38Z</time>
      </trkpt>
      <trkpt lat="47.0047" lon="5.75488">
        <ele>233</ele>
        <time>2018-10-04T12:31:45Z</time>
      </trkpt>
      <trkpt lat="47.00475" lon="5.7549">
        <ele>233</ele>
        <time>2018-10-04T12:31:49Z</time>
      </trkpt>
      <trkpt lat="47.0048" lon="5.75491">
        <ele>232</ele>
        <time>2018-10-04T12:31:53Z</time>
      </trkpt>
      <trkpt lat="47.0059" lon="5.75553">
        <ele>232</ele>
        <time>2018-10-04T12:33:21Z</time>
      </trkpt>
      <trkpt lat="47.00599" lon="5.7556">
        <ele>234</ele>
        <time>2018-10-04T12:33:28Z</time>
      </trkpt>
      <trkpt lat="47.0061" lon="5.75564">
        <ele>233</ele>
        <time>2018-10-04T12:33:36Z</time>
      </trkpt>
      <trkpt lat="47.00638" lon="5.75585">
        <ele>234</ele>
        <time>2018-10-04T12:34:00Z</time>
      </trkpt>
      <trkpt lat="47.00643" lon="5.75587">
        <ele>234</ele>
        <time>2018-10-04T12:34:04Z</time>
      </trkpt>
      <trkpt lat="47.00662" lon="5.75601">
        <ele>234</ele>
        <time>2018-10-04T12:34:20Z</time>
      </trkpt>
      <trkpt lat="47.00666" lon="5.75604">
        <ele>234</ele>
        <time>2018-10-04T12:34:24Z</time>
      </trkpt>
      <trkpt lat="47.00676" lon="5.7561">
        <ele>234</ele>
        <time>2018-10-04T12:34:32Z</time>
      </trkpt>
      <trkpt lat="47.00703" lon="5.75637">
        <ele>235</ele>
        <time>2018-10-04T12:34:56Z</time>
      </trkpt>
      <trkpt lat="47.00707" lon="5.75641">
        <ele>235</ele>
        <time>2018-10-04T12:35:00Z</time>
      </trkpt>
      <trkpt lat="47.00711" lon="5.75647">
        <ele>235</ele>
        <time>2018-10-04T12:35:04Z</time>
      </trkpt>
      <trkpt lat="47.00714" lon="5.75654">
        <ele>235</ele>
        <time>2018-10-04T12:35:08Z</time>
      </trkpt>
      <trkpt lat="47.00726" lon="5.75668">
        <ele>236</ele>
        <time>2018-10-04T12:35:19Z</time>
      </trkpt>
      <trkpt lat="47.00729" lon="5.75673">
        <ele>236</ele>
        <time>2018-10-04T12:35:22Z</time>
      </trkpt>
      <trkpt lat="47.00733" lon="5.75677">
        <ele>236</ele>
        <time>2018-10-04T12:35:26Z</time>
      </trkpt>
      <trkpt lat="47.00737" lon="5.75682">
        <ele>236</ele>
        <time>2018-10-04T12:35:30Z</time>
      </trkpt>
      <trkpt lat="47.00742" lon="5.75687">
        <ele>236</ele>
        <time>2018-10-04T12:35:34Z</time>
      </trkpt>
      <trkpt lat="47.00767" lon="5.75703">
        <ele>235</ele>
        <time>2018-10-04T12:35:54Z</time>
      </trkpt>
      <trkpt lat="47.00778" lon="5.75705">
        <ele>234</ele>
        <time>2018-10-04T12:36:02Z</time>
      </trkpt>
      <trkpt lat="47.00782" lon="5.75706">
        <ele>234</ele>
        <time>2018-10-04T12:36:06Z</time>
      </trkpt>
      <trkpt lat="47.00787" lon="5.75709">
        <ele>233</ele>
        <time>2018-10-04T12:36:10Z</time>
      </trkpt>
      <trkpt lat="47.00793" lon="5.7571">
        <ele>233</ele>
        <time>2018-10-04T12:36:14Z</time>
      </trkpt>
      <trkpt lat="47.00829" lon="5.75719">
        <ele>234</ele>
        <time>2018-10-04T12:36:41Z</time>
      </trkpt>
      <trkpt lat="47.00834" lon="5.75719">
        <ele>234</ele>
        <time>2018-10-04T12:36:44Z</time>
      </trkpt>
      <trkpt lat="47.00854" lon="5.75725">
        <ele>234</ele>
        <time>2018-10-04T12:37:00Z</time>
      </trkpt>
      <trkpt lat="47.0086" lon="5.75726">
        <ele>234</ele>
        <time>2018-10-04T12:37:04Z</time>
      </trkpt>
      <trkpt lat="47.00876" lon="5.7573">
        <ele>234</ele>
        <time>2018-10-04T12:37:16Z</time>
      </trkpt>
      <trkpt lat="47.00881" lon="5.75733">
        <ele>233</ele>
        <time>2018-10-04T12:37:20Z</time>
      </trkpt>
      <trkpt lat="47.00896" lon="5.75739">
        <ele>233</ele>
        <time>2018-10-04T12:37:32Z</time>
      </trkpt>
      <trkpt lat="47.00927" lon="5.75748">
        <ele>232</ele>
        <time>2018-10-04T12:37:56Z</time>
      </trkpt>
      <trkpt lat="47.00932" lon="5.75751">
        <ele>232</ele>
        <time>2018-10-04T12:38:01Z</time>
      </trkpt>
      <trkpt lat="47.00938" lon="5.75751">
        <ele>232</ele>
        <time>2018-10-04T12:38:05Z</time>
      </trkpt>
      <trkpt lat="47.0095" lon="5.75752">
        <ele>231</ele>
        <time>2018-10-04T12:38:15Z</time>
      </trkpt>
      <trkpt lat="47.00965" lon="5.75755">
        <ele>231</ele>
        <time>2018-10-04T12:38:26Z</time>
      </trkpt>
      <trkpt lat="47.00985" lon="5.75761">
        <ele>230</ele>
        <time>2018-10-04T12:38:42Z</time>
      </trkpt>
      <trkpt lat="47.00996" lon="5.75765">
        <ele>231</ele>
        <time>2018-10-04T12:38:50Z</time>
      </trkpt>
      <trkpt lat="47.01002" lon="5.75767">
        <ele>231</ele>
        <time>2018-10-04T12:38:54Z</time>
      </trkpt>
      <trkpt lat="47.01007" lon="5.75769">
        <ele>232</ele>
        <time>2018-10-04T12:38:58Z</time>
      </trkpt>
      <trkpt lat="47.01012" lon="5.7577">
        <ele>231</ele>
        <time>2018-10-04T12:39:02Z</time>
      </trkpt>
      <trkpt lat="47.01055" lon="5.75772">
        <ele>230</ele>
        <time>2018-10-04T12:39:34Z</time>
      </trkpt>
      <trkpt lat="47.0107" lon="5.75769">
        <ele>230</ele>
        <time>2018-10-04T12:39:46Z</time>
      </trkpt>
      <trkpt lat="47.0109" lon="5.75765">
        <ele>228</ele>
        <time>2018-10-04T12:40:03Z</time>
      </trkpt>
      <trkpt lat="47.01095" lon="5.75764">
        <ele>228</ele>
        <time>2018-10-04T12:40:07Z</time>
      </trkpt>
      <trkpt lat="47.011" lon="5.75763">
        <ele>228</ele>
        <time>2018-10-04T12:40:11Z</time>
      </trkpt>
      <trkpt lat="47.01111" lon="5.75762">
        <ele>229</ele>
        <time>2018-10-04T12:40:20Z</time>
      </trkpt>
      <trkpt lat="47.01122" lon="5.75764">
        <ele>228</ele>
        <time>2018-10-04T12:40:28Z</time>
      </trkpt>
      <trkpt lat="47.01147" lon="5.75778">
        <ele>229</ele>
        <time>2018-10-04T12:40:46Z</time>
      </trkpt>
      <trkpt lat="47.01152" lon="5.75781">
        <ele>229</ele>
        <time>2018-10-04T12:40:49Z</time>
      </trkpt>
      <trkpt lat="47.01156" lon="5.75787">
        <ele>229</ele>
        <time>2018-10-04T12:40:54Z</time>
      </trkpt>
      <trkpt lat="47.01166" lon="5.75794">
        <ele>229</ele>
        <time>2018-10-04T12:41:02Z</time>
      </trkpt>
      <trkpt lat="47.0117" lon="5.75797">
        <ele>230</ele>
        <time>2018-10-04T12:41:06Z</time>
      </trkpt>
      <trkpt lat="47.01184" lon="5.75809">
        <ele>230</ele>
        <time>2018-10-04T12:41:17Z</time>
      </trkpt>
      <trkpt lat="47.01194" lon="5.75818">
        <ele>229</ele>
        <time>2018-10-04T12:41:25Z</time>
      </trkpt>
      <trkpt lat="47.01199" lon="5.75819">
        <ele>229</ele>
        <time>2018-10-04T12:41:28Z</time>
      </trkpt>
      <trkpt lat="47.01203" lon="5.75822">
        <ele>229</ele>
        <time>2018-10-04T12:41:31Z</time>
      </trkpt>
      <trkpt lat="47.01208" lon="5.75825">
        <ele>228</ele>
        <time>2018-10-04T12:41:35Z</time>
      </trkpt>
      <trkpt lat="47.01226" lon="5.75839">
        <ele>229</ele>
        <time>2018-10-04T12:41:50Z</time>
      </trkpt>
      <trkpt lat="47.01231" lon="5.75841">
        <ele>229</ele>
        <time>2018-10-04T12:41:54Z</time>
      </trkpt>
      <trkpt lat="47.01241" lon="5.75849">
        <ele>229</ele>
        <time>2018-10-04T12:42:02Z</time>
      </trkpt>
      <trkpt lat="47.01246" lon="5.7585">
        <ele>229</ele>
        <time>2018-10-04T12:42:06Z</time>
      </trkpt>
      <trkpt lat="47.01252" lon="5.75852">
        <ele>229</ele>
        <time>2018-10-04T12:42:10Z</time>
      </trkpt>
      <trkpt lat="47.01258" lon="5.75854">
        <ele>229</ele>
        <time>2018-10-04T12:42:14Z</time>
      </trkpt>
      <trkpt lat="47.01263" lon="5.75855">
        <ele>229</ele>
        <time>2018-10-04T12:42:18Z</time>
      </trkpt>
      <trkpt lat="47.01268" lon="5.75857">
        <ele>229</ele>
        <time>2018-10-04T12:42:22Z</time>
      </trkpt>
      <trkpt lat="47.01279" lon="5.7586">
        <ele>230</ele>
        <time>2018-10-04T12:42:30Z</time>
      </trkpt>
      <trkpt lat="47.01284" lon="5.75862">
        <ele>229</ele>
        <time>2018-10-04T12:42:34Z</time>
      </trkpt>
      <trkpt lat="47.01288" lon="5.75863">
        <ele>229</ele>
        <time>2018-10-04T12:42:38Z</time>
      </trkpt>
      <trkpt lat="47.01299" lon="5.75863">
        <ele>229</ele>
        <time>2018-10-04T12:42:46Z</time>
      </trkpt>
      <trkpt lat="47.01314" lon="5.75865">
        <ele>230</ele>
        <time>2018-10-04T12:42:57Z</time>
      </trkpt>
      <trkpt lat="47.01319" lon="5.75867">
        <ele>230</ele>
        <time>2018-10-04T12:43:02Z</time>
      </trkpt>
      <trkpt lat="47.01327" lon="5.75876">
        <ele>228</ele>
        <time>2018-10-04T12:43:10Z</time>
      </trkpt>
      <trkpt lat="47.01331" lon="5.75881">
        <ele>228</ele>
        <time>2018-10-04T12:43:14Z</time>
      </trkpt>
      <trkpt lat="47.0134" lon="5.75911">
        <ele>227</ele>
        <time>2018-10-04T12:43:31Z</time>
      </trkpt>
      <trkpt lat="47.01344" lon="5.75924">
        <ele>228</ele>
        <time>2018-10-04T12:43:39Z</time>
      </trkpt>
      <trkpt lat="47.01346" lon="5.75932">
        <ele>228</ele>
        <time>2018-10-04T12:43:43Z</time>
      </trkpt>
      <trkpt lat="47.01348" lon="5.75938">
        <ele>228</ele>
        <time>2018-10-04T12:43:47Z</time>
      </trkpt>
      <trkpt lat="47.01359" lon="5.75972">
        <ele>229</ele>
        <time>2018-10-04T12:44:05Z</time>
      </trkpt>
      <trkpt lat="47.01363" lon="5.75984">
        <ele>232</ele>
        <time>2018-10-04T12:44:13Z</time>
      </trkpt>
      <trkpt lat="47.01365" lon="5.75991">
        <ele>232</ele>
        <time>2018-10-04T12:44:17Z</time>
      </trkpt>
      <trkpt lat="47.01368" lon="5.75999">
        <ele>232</ele>
        <time>2018-10-04T12:44:21Z</time>
      </trkpt>
      <trkpt lat="47.0138" lon="5.76038">
        <ele>232</ele>
        <time>2018-10-04T12:44:43Z</time>
      </trkpt>
      <trkpt lat="47.01404" lon="5.76105">
        <ele>230</ele>
        <time>2018-10-04T12:45:22Z</time>
      </trkpt>
      <trkpt lat="47.01405" lon="5.76112">
        <ele>231</ele>
        <time>2018-10-04T12:45:26Z</time>
      </trkpt>
      <trkpt lat="47.01406" lon="5.76119">
        <ele>231</ele>
        <time>2018-10-04T12:45:30Z</time>
      </trkpt>
      <trkpt lat="47.01408" lon="5.76127">
        <ele>231</ele>
        <time>2018-10-04T12:45:34Z</time>
      </trkpt>
      <trkpt lat="47.0141" lon="5.76133">
        <ele>231</ele>
        <time>2018-10-04T12:45:38Z</time>
      </trkpt>
      <trkpt lat="47.01417" lon="5.76154">
        <ele>228</ele>
        <time>2018-10-04T12:45:50Z</time>
      </trkpt>
      <trkpt lat="47.0142" lon="5.76162">
        <ele>228</ele>
        <time>2018-10-04T12:45:53Z</time>
      </trkpt>
      <trkpt lat="47.01422" lon="5.76168">
        <ele>229</ele>
        <time>2018-10-04T12:45:58Z</time>
      </trkpt>
      <trkpt lat="47.01434" lon="5.7621">
        <ele>229</ele>
        <time>2018-10-04T12:46:23Z</time>
      </trkpt>
      <trkpt lat="47.01436" lon="5.76216">
        <ele>229</ele>
        <time>2018-10-04T12:46:26Z</time>
      </trkpt>
      <trkpt lat="47.01455" lon="5.76276">
        <ele>230</ele>
        <time>2018-10-04T12:46:59Z</time>
      </trkpt>
      <trkpt lat="47.01467" lon="5.76309">
        <ele>230</ele>
        <time>2018-10-04T12:47:19Z</time>
      </trkpt>
      <trkpt lat="47.01469" lon="5.76316">
        <ele>230</ele>
        <time>2018-10-04T12:47:23Z</time>
      </trkpt>
      <trkpt lat="47.01475" lon="5.76337">
        <ele>230</ele>
        <time>2018-10-04T12:47:35Z</time>
      </trkpt>
      <trkpt lat="47.01494" lon="5.76393">
        <ele>230</ele>
        <time>2018-10-04T12:48:07Z</time>
      </trkpt>
      <trkpt lat="47.0151" lon="5.76448">
        <ele>230</ele>
        <time>2018-10-04T12:48:39Z</time>
      </trkpt>
      <trkpt lat="47.01527" lon="5.76503">
        <ele>230</ele>
        <time>2018-10-04T12:49:10Z</time>
      </trkpt>
      <trkpt lat="47.0153" lon="5.7651">
        <ele>230</ele>
        <time>2018-10-04T12:49:14Z</time>
      </trkpt>
      <trkpt lat="47.01532" lon="5.76516">
        <ele>230</ele>
        <time>2018-10-04T12:49:18Z</time>
      </trkpt>
      <trkpt lat="47.01536" lon="5.76529">
        <ele>230</ele>
        <time>2018-10-04T12:49:25Z</time>
      </trkpt>
      <trkpt lat="47.01539" lon="5.76536">
        <ele>230</ele>
        <time>2018-10-04T12:49:29Z</time>
      </trkpt>
      <trkpt lat="47.01548" lon="5.76565">
        <ele>230</ele>
        <time>2018-10-04T12:49:45Z</time>
      </trkpt>
      <trkpt lat="47.01551" lon="5.76579">
        <ele>231</ele>
        <time>2018-10-04T12:49:53Z</time>
      </trkpt>
      <trkpt lat="47.01555" lon="5.76594">
        <ele>231</ele>
        <time>2018-10-04T12:50:01Z</time>
      </trkpt>
      <trkpt lat="47.01558" lon="5.76602">
        <ele>230</ele>
        <time>2018-10-04T12:50:05Z</time>
      </trkpt>
      <trkpt lat="47.01565" lon="5.76622">
        <ele>230</ele>
        <time>2018-10-04T12:50:16Z</time>
      </trkpt>
      <trkpt lat="47.01567" lon="5.76629">
        <ele>231</ele>
        <time>2018-10-04T12:50:20Z</time>
      </trkpt>
      <trkpt lat="47.0158" lon="5.76671">
        <ele>230</ele>
        <time>2018-10-04T12:50:42Z</time>
      </trkpt>
      <trkpt lat="47.01582" lon="5.76678">
        <ele>230</ele>
        <time>2018-10-04T12:50:46Z</time>
      </trkpt>
      <trkpt lat="47.016" lon="5.76733">
        <ele>230</ele>
        <time>2018-10-04T12:51:17Z</time>
      </trkpt>
      <trkpt lat="47.01604" lon="5.76747">
        <ele>231</ele>
        <time>2018-10-04T12:51:25Z</time>
      </trkpt>
      <trkpt lat="47.01606" lon="5.76754">
        <ele>231</ele>
        <time>2018-10-04T12:51:29Z</time>
      </trkpt>
      <trkpt lat="47.01615" lon="5.76788">
        <ele>231</ele>
        <time>2018-10-04T12:51:49Z</time>
      </trkpt>
      <trkpt lat="47.01614" lon="5.76789">
        <ele>231</ele>
        <time>2018-10-04T12:52:18Z</time>
      </trkpt>
      <trkpt lat="47.01616" lon="5.76796">
        <ele>231</ele>
        <time>2018-10-04T12:52:59Z</time>
      </trkpt>
      <trkpt lat="47.01616" lon="5.76804">
        <ele>231</ele>
        <time>2018-10-04T12:53:06Z</time>
      </trkpt>
      <trkpt lat="47.01614" lon="5.76811">
        <ele>230</ele>
        <time>2018-10-04T12:53:10Z</time>
      </trkpt>
      <trkpt lat="47.01611" lon="5.76816">
        <ele>231</ele>
        <time>2018-10-04T12:53:14Z</time>
      </trkpt>
      <trkpt lat="47.01602" lon="5.76833">
        <ele>230</ele>
        <time>2018-10-04T12:53:26Z</time>
      </trkpt>
      <trkpt lat="47.01599" lon="5.76838">
        <ele>231</ele>
        <time>2018-10-04T12:53:30Z</time>
      </trkpt>
      <trkpt lat="47.01593" lon="5.76851">
        <ele>230</ele>
        <time>2018-10-04T12:53:38Z</time>
      </trkpt>
      <trkpt lat="47.01578" lon="5.7688">
        <ele>230</ele>
        <time>2018-10-04T12:53:58Z</time>
      </trkpt>
      <trkpt lat="47.01575" lon="5.76886">
        <ele>230</ele>
        <time>2018-10-04T12:54:02Z</time>
      </trkpt>
      <trkpt lat="47.01572" lon="5.76894">
        <ele>230</ele>
        <time>2018-10-04T12:54:06Z</time>
      </trkpt>
      <trkpt lat="47.01548" lon="5.76944">
        <ele>231</ele>
        <time>2018-10-04T12:54:37Z</time>
      </trkpt>
      <trkpt lat="47.01541" lon="5.76964">
        <ele>231</ele>
        <time>2018-10-04T12:54:48Z</time>
      </trkpt>
      <trkpt lat="47.01538" lon="5.7697">
        <ele>231</ele>
        <time>2018-10-04T12:54:52Z</time>
      </trkpt>
      <trkpt lat="47.01528" lon="5.76989">
        <ele>230</ele>
        <time>2018-10-04T12:55:04Z</time>
      </trkpt>
      <trkpt lat="47.01505" lon="5.77035">
        <ele>230</ele>
        <time>2018-10-04T12:55:32Z</time>
      </trkpt>
      <trkpt lat="47.01501" lon="5.7704">
        <ele>230</ele>
        <time>2018-10-04T12:55:36Z</time>
      </trkpt>
      <trkpt lat="47.01498" lon="5.77045">
        <ele>230</ele>
        <time>2018-10-04T12:55:40Z</time>
      </trkpt>
      <trkpt lat="47.01471" lon="5.7709">
        <ele>231</ele>
        <time>2018-10-04T12:56:11Z</time>
      </trkpt>
      <trkpt lat="47.01466" lon="5.77095">
        <ele>231</ele>
        <time>2018-10-04T12:56:15Z</time>
      </trkpt>
      <trkpt lat="47.01452" lon="5.77109">
        <ele>231</ele>
        <time>2018-10-04T12:56:27Z</time>
      </trkpt>
      <trkpt lat="47.01448" lon="5.77113">
        <ele>232</ele>
        <time>2018-10-04T12:56:31Z</time>
      </trkpt>
      <trkpt lat="47.01439" lon="5.7712">
        <ele>231</ele>
        <time>2018-10-04T12:56:38Z</time>
      </trkpt>
      <trkpt lat="47.0143" lon="5.77127">
        <ele>232</ele>
        <time>2018-10-04T12:56:44Z</time>
      </trkpt>
      <trkpt lat="47.01426" lon="5.77131">
        <ele>231</ele>
        <time>2018-10-04T12:56:48Z</time>
      </trkpt>
      <trkpt lat="47.01416" lon="5.77138">
        <ele>232</ele>
        <time>2018-10-04T12:56:56Z</time>
      </trkpt>
      <trkpt lat="47.01395" lon="5.77157">
        <ele>231</ele>
        <time>2018-10-04T12:57:15Z</time>
      </trkpt>
      <trkpt lat="47.01386" lon="5.77165">
        <ele>232</ele>
        <time>2018-10-04T12:57:23Z</time>
      </trkpt>
      <trkpt lat="47.01375" lon="5.7718">
        <ele>231</ele>
        <time>2018-10-04T12:57:35Z</time>
      </trkpt>
      <trkpt lat="47.01371" lon="5.77186">
        <ele>231</ele>
        <time>2018-10-04T12:57:39Z</time>
      </trkpt>
      <trkpt lat="47.01365" lon="5.77199">
        <ele>231</ele>
        <time>2018-10-04T12:57:47Z</time>
      </trkpt>
      <trkpt lat="47.01356" lon="5.77218">
        <ele>231</ele>
        <time>2018-10-04T12:57:59Z</time>
      </trkpt>
      <trkpt lat="47.01334" lon="5.7727">
        <ele>231</ele>
        <time>2018-10-04T12:58:31Z</time>
      </trkpt>
      <trkpt lat="47.01329" lon="5.77284">
        <ele>231</ele>
        <time>2018-10-04T12:58:39Z</time>
      </trkpt>
      <trkpt lat="47.01327" lon="5.77292">
        <ele>231</ele>
        <time>2018-10-04T12:58:43Z</time>
      </trkpt>
      <trkpt lat="47.01322" lon="5.77306">
        <ele>231</ele>
        <time>2018-10-04T12:58:51Z</time>
      </trkpt>
      <trkpt lat="47.01318" lon="5.77327">
        <ele>231</ele>
        <time>2018-10-04T12:59:03Z</time>
      </trkpt>
      <trkpt lat="47.01312" lon="5.77362">
        <ele>230</ele>
        <time>2018-10-04T12:59:22Z</time>
      </trkpt>
      <trkpt lat="47.01311" lon="5.7737">
        <ele>230</ele>
        <time>2018-10-04T12:59:26Z</time>
      </trkpt>
      <trkpt lat="47.01311" lon="5.77377">
        <ele>230</ele>
        <time>2018-10-04T12:59:30Z</time>
      </trkpt>
      <trkpt lat="47.0131" lon="5.77385">
        <ele>230</ele>
        <time>2018-10-04T12:59:34Z</time>
      </trkpt>
      <trkpt lat="47.0131" lon="5.77392">
        <ele>229</ele>
        <time>2018-10-04T12:59:38Z</time>
      </trkpt>
      <trkpt lat="47.01309" lon="5.77416">
        <ele>230</ele>
        <time>2018-10-04T12:59:51Z</time>
      </trkpt>
      <trkpt lat="47.01308" lon="5.77432">
        <ele>230</ele>
        <time>2018-10-04T12:59:59Z</time>
      </trkpt>
      <trkpt lat="47.01307" lon="5.77477">
        <ele>230</ele>
        <time>2018-10-04T13:00:22Z</time>
      </trkpt>
      <trkpt lat="47.01306" lon="5.77493">
        <ele>230</ele>
        <time>2018-10-04T13:00:30Z</time>
      </trkpt>
      <trkpt lat="47.01305" lon="5.77508">
        <ele>231</ele>
        <time>2018-10-04T13:00:38Z</time>
      </trkpt>
      <trkpt lat="47.01303" lon="5.77515">
        <ele>231</ele>
        <time>2018-10-04T13:00:42Z</time>
      </trkpt>
      <trkpt lat="47.01298" lon="5.77529">
        <ele>231</ele>
        <time>2018-10-04T13:00:50Z</time>
      </trkpt>
      <trkpt lat="47.01294" lon="5.77533">
        <ele>231</ele>
        <time>2018-10-04T13:00:53Z</time>
      </trkpt>
      <trkpt lat="47.01284" lon="5.77538">
        <ele>232</ele>
        <time>2018-10-04T13:01:01Z</time>
      </trkpt>
      <trkpt lat="47.01269" lon="5.77542">
        <ele>232</ele>
        <time>2018-10-04T13:01:13Z</time>
      </trkpt>
      <trkpt lat="47.01264" lon="5.77544">
        <ele>232</ele>
        <time>2018-10-04T13:01:17Z</time>
      </trkpt>
      <trkpt lat="47.01249" lon="5.7755">
        <ele>233</ele>
        <time>2018-10-04T13:01:29Z</time>
      </trkpt>
      <trkpt lat="47.01244" lon="5.77553">
        <ele>233</ele>
        <time>2018-10-04T13:01:33Z</time>
      </trkpt>
      <trkpt lat="47.01239" lon="5.77554">
        <ele>233</ele>
        <time>2018-10-04T13:01:37Z</time>
      </trkpt>
      <trkpt lat="47.01234" lon="5.77556">
        <ele>233</ele>
        <time>2018-10-04T13:01:41Z</time>
      </trkpt>
      <trkpt lat="47.01199" lon="5.77567">
        <ele>232</ele>
        <time>2018-10-04T13:02:08Z</time>
      </trkpt>
      <trkpt lat="47.01194" lon="5.77565">
        <ele>232</ele>
        <time>2018-10-04T13:02:12Z</time>
      </trkpt>
      <trkpt lat="47.01184" lon="5.77563">
        <ele>232</ele>
        <time>2018-10-04T13:02:20Z</time>
      </trkpt>
      <trkpt lat="47.01174" lon="5.77564">
        <ele>232</ele>
        <time>2018-10-04T13:02:28Z</time>
      </trkpt>
      <trkpt lat="47.01163" lon="5.77568">
        <ele>232</ele>
        <time>2018-10-04T13:02:36Z</time>
      </trkpt>
      <trkpt lat="47.01159" lon="5.77573">
        <ele>233</ele>
        <time>2018-10-04T13:02:40Z</time>
      </trkpt>
      <trkpt lat="47.0115" lon="5.77591">
        <ele>232</ele>
        <time>2018-10-04T13:02:53Z</time>
      </trkpt>
      <trkpt lat="47.01148" lon="5.77597">
        <ele>232</ele>
        <time>2018-10-04T13:02:57Z</time>
      </trkpt>
      <trkpt lat="47.01147" lon="5.77604">
        <ele>232</ele>
        <time>2018-10-04T13:03:02Z</time>
      </trkpt>
      <trkpt lat="47.01152" lon="5.77617">
        <ele>232</ele>
        <time>2018-10-04T13:03:09Z</time>
      </trkpt>
      <trkpt lat="47.01155" lon="5.77623">
        <ele>232</ele>
        <time>2018-10-04T13:03:13Z</time>
      </trkpt>
      <trkpt lat="47.01158" lon="5.7763">
        <ele>232</ele>
        <time>2018-10-04T13:03:17Z</time>
      </trkpt>
      <trkpt lat="47.0116" lon="5.77636">
        <ele>232</ele>
        <time>2018-10-04T13:03:21Z</time>
      </trkpt>
      <trkpt lat="47.0116" lon="5.77643">
        <ele>233</ele>
        <time>2018-10-04T13:03:25Z</time>
      </trkpt>
      <trkpt lat="47.01162" lon="5.7765">
        <ele>232</ele>
        <time>2018-10-04T13:03:29Z</time>
      </trkpt>
      <trkpt lat="47.01164" lon="5.77656">
        <ele>233</ele>
        <time>2018-10-04T13:03:33Z</time>
      </trkpt>
      <trkpt lat="47.01181" lon="5.77684">
        <ele>232</ele>
        <time>2018-10-04T13:03:54Z</time>
      </trkpt>
      <trkpt lat="47.01189" lon="5.77695">
        <ele>232</ele>
        <time>2018-10-04T13:04:02Z</time>
      </trkpt>
      <trkpt lat="47.01191" lon="5.777">
        <ele>232</ele>
        <time>2018-10-04T13:04:06Z</time>
      </trkpt>
      <trkpt lat="47.01184" lon="5.77707">
        <ele>232</ele>
        <time>2018-10-04T13:04:19Z</time>
      </trkpt>
      <trkpt lat="47.01177" lon="5.77696">
        <ele>232</ele>
        <time>2018-10-04T13:04:29Z</time>
      </trkpt>
      <trkpt lat="47.01172" lon="5.77699">
        <ele>232</ele>
        <time>2018-10-04T13:04:32Z</time>
      </trkpt>
      <trkpt lat="47.01144" lon="5.77733">
        <ele>231</ele>
        <time>2018-10-04T13:04:59Z</time>
      </trkpt>
      <trkpt lat="47.0114" lon="5.77738">
        <ele>232</ele>
        <time>2018-10-04T13:05:03Z</time>
      </trkpt>
      <trkpt lat="47.0113" lon="5.77743">
        <ele>232</ele>
        <time>2018-10-04T13:05:10Z</time>
      </trkpt>
      <trkpt lat="47.01128" lon="5.77749">
        <ele>232</ele>
        <time>2018-10-04T13:05:13Z</time>
      </trkpt>
      <trkpt lat="47.01125" lon="5.77756">
        <ele>232</ele>
        <time>2018-10-04T13:05:17Z</time>
      </trkpt>
      <trkpt lat="47.01123" lon="5.77763">
        <ele>232</ele>
        <time>2018-10-04T13:05:22Z</time>
      </trkpt>
      <trkpt lat="47.01113" lon="5.77781">
        <ele>232</ele>
        <time>2018-10-04T13:05:33Z</time>
      </trkpt>
      <trkpt lat="47.01109" lon="5.77786">
        <ele>232</ele>
        <time>2018-10-04T13:05:37Z</time>
      </trkpt>
      <trkpt lat="47.01104" lon="5.7779">
        <ele>232</ele>
        <time>2018-10-04T13:05:41Z</time>
      </trkpt>
      <trkpt lat="47.011" lon="5.77795">
        <ele>232</ele>
        <time>2018-10-04T13:05:45Z</time>
      </trkpt>
      <trkpt lat="47.01095" lon="5.77799">
        <ele>232</ele>
        <time>2018-10-04T13:05:49Z</time>
      </trkpt>
      <trkpt lat="47.01091" lon="5.77804">
        <ele>232</ele>
        <time>2018-10-04T13:05:53Z</time>
      </trkpt>
      <trkpt lat="47.01083" lon="5.77814">
        <ele>232</ele>
        <time>2018-10-04T13:06:01Z</time>
      </trkpt>
      <trkpt lat="47.01078" lon="5.77825">
        <ele>232</ele>
        <time>2018-10-04T13:06:08Z</time>
      </trkpt>
      <trkpt lat="47.01066" lon="5.77842">
        <ele>230</ele>
        <time>2018-10-04T13:06:20Z</time>
      </trkpt>
      <trkpt lat="47.01059" lon="5.77854">
        <ele>230</ele>
        <time>2018-10-04T13:06:28Z</time>
      </trkpt>
      <trkpt lat="47.01055" lon="5.77859">
        <ele>230</ele>
        <time>2018-10-04T13:06:32Z</time>
      </trkpt>
      <trkpt lat="47.0104" lon="5.77881">
        <ele>230</ele>
        <time>2018-10-04T13:06:48Z</time>
      </trkpt>
      <trkpt lat="47.01036" lon="5.77886">
        <ele>230</ele>
        <time>2018-10-04T13:06:53Z</time>
      </trkpt>
      <trkpt lat="47.01033" lon="5.77893">
        <ele>230</ele>
        <time>2018-10-04T13:06:57Z</time>
      </trkpt>
      <trkpt lat="47.01025" lon="5.77903">
        <ele>230</ele>
        <time>2018-10-04T13:07:05Z</time>
      </trkpt>
      <trkpt lat="47.01012" lon="5.77916">
        <ele>230</ele>
        <time>2018-10-04T13:07:17Z</time>
      </trkpt>
      <trkpt lat="47.01009" lon="5.77921">
        <ele>230</ele>
        <time>2018-10-04T13:07:21Z</time>
      </trkpt>
      <trkpt lat="47.01004" lon="5.77926">
        <ele>229</ele>
        <time>2018-10-04T13:07:25Z</time>
      </trkpt>
      <trkpt lat="47.01" lon="5.77932">
        <ele>229</ele>
        <time>2018-10-04T13:07:29Z</time>
      </trkpt>
      <trkpt lat="47.00986" lon="5.77954">
        <ele>229</ele>
        <time>2018-10-04T13:07:44Z</time>
      </trkpt>
      <trkpt lat="47.00979" lon="5.77964">
        <ele>229</ele>
        <time>2018-10-04T13:07:51Z</time>
      </trkpt>
      <trkpt lat="47.00946" lon="5.78003">
        <ele>230</ele>
        <time>2018-10-04T13:08:22Z</time>
      </trkpt>
      <trkpt lat="47.00913" lon="5.78039">
        <ele>230</ele>
        <time>2018-10-04T13:08:54Z</time>
      </trkpt>
      <trkpt lat="47.00909" lon="5.78045">
        <ele>230</ele>
        <time>2018-10-04T13:08:58Z</time>
      </trkpt>
      <trkpt lat="47.00902" lon="5.78056">
        <ele>230</ele>
        <time>2018-10-04T13:09:07Z</time>
      </trkpt>
      <trkpt lat="47.00898" lon="5.78062">
        <ele>230</ele>
        <time>2018-10-04T13:09:11Z</time>
      </trkpt>
      <trkpt lat="47.00891" lon="5.78073">
        <ele>230</ele>
        <time>2018-10-04T13:09:20Z</time>
      </trkpt>
      <trkpt lat="47.00887" lon="5.78078">
        <ele>230</ele>
        <time>2018-10-04T13:09:24Z</time>
      </trkpt>
      <trkpt lat="47.00882" lon="5.78081">
        <ele>230</ele>
        <time>2018-10-04T13:10:23Z</time>
      </trkpt>
      <trkpt lat="47.00873" lon="5.78091">
        <ele>229</ele>
        <time>2018-10-04T13:10:32Z</time>
      </trkpt>
      <trkpt lat="47.00864" lon="5.78101">
        <ele>229</ele>
        <time>2018-10-04T13:10:40Z</time>
      </trkpt>
      <trkpt lat="47.00831" lon="5.78139">
        <ele>231</ele>
        <time>2018-10-04T13:11:11Z</time>
      </trkpt>
      <trkpt lat="47.00828" lon="5.78145">
        <ele>230</ele>
        <time>2018-10-04T13:11:15Z</time>
      </trkpt>
      <trkpt lat="47.00819" lon="5.78155">
        <ele>231</ele>
        <time>2018-10-04T13:11:23Z</time>
      </trkpt>
      <trkpt lat="47.00815" lon="5.7816">
        <ele>231</ele>
        <time>2018-10-04T13:11:27Z</time>
      </trkpt>
      <trkpt lat="47.00808" lon="5.7817">
        <ele>231</ele>
        <time>2018-10-04T13:11:35Z</time>
      </trkpt>
      <trkpt lat="47.00788" lon="5.78194">
        <ele>230</ele>
        <time>2018-10-04T13:11:54Z</time>
      </trkpt>
      <trkpt lat="47.00783" lon="5.78199">
        <ele>230</ele>
        <time>2018-10-04T13:11:58Z</time>
      </trkpt>
      <trkpt lat="47.00779" lon="5.78205">
        <ele>230</ele>
        <time>2018-10-04T13:12:02Z</time>
      </trkpt>
      <trkpt lat="47.00753" lon="5.78235">
        <ele>231</ele>
        <time>2018-10-04T13:12:28Z</time>
      </trkpt>
      <trkpt lat="47.00749" lon="5.7824">
        <ele>231</ele>
        <time>2018-10-04T13:12:32Z</time>
      </trkpt>
      <trkpt lat="47.0074" lon="5.7825">
        <ele>231</ele>
        <time>2018-10-04T13:12:40Z</time>
      </trkpt>
      <trkpt lat="47.00721" lon="5.78276">
        <ele>230</ele>
        <time>2018-10-04T13:12:59Z</time>
      </trkpt>
      <trkpt lat="47.00708" lon="5.78289">
        <ele>231</ele>
        <time>2018-10-04T13:13:11Z</time>
      </trkpt>
      <trkpt lat="47.00705" lon="5.78294">
        <ele>231</ele>
        <time>2018-10-04T13:13:15Z</time>
      </trkpt>
      <trkpt lat="47.007" lon="5.78296">
        <ele>231</ele>
        <time>2018-10-04T13:13:19Z</time>
      </trkpt>
      <trkpt lat="47.00696" lon="5.78293">
        <ele>231</ele>
        <time>2018-10-04T13:13:24Z</time>
      </trkpt>
      <trkpt lat="47.00692" lon="5.78286">
        <ele>231</ele>
        <time>2018-10-04T13:13:28Z</time>
      </trkpt>
      <trkpt lat="47.00688" lon="5.78274">
        <ele>232</ele>
        <time>2018-10-04T13:13:36Z</time>
      </trkpt>
      <trkpt lat="47.00682" lon="5.78262">
        <ele>232</ele>
        <time>2018-10-04T13:13:44Z</time>
      </trkpt>
      <trkpt lat="47.00668" lon="5.78231">
        <ele>233</ele>
        <time>2018-10-04T13:14:04Z</time>
      </trkpt>
      <trkpt lat="47.00665" lon="5.78225">
        <ele>233</ele>
        <time>2018-10-04T13:14:08Z</time>
      </trkpt>
      <trkpt lat="47.00656" lon="5.78206">
        <ele>233</ele>
        <time>2018-10-04T13:14:20Z</time>
      </trkpt>
      <trkpt lat="47.0065" lon="5.78194">
        <ele>233</ele>
        <time>2018-10-04T13:14:27Z</time>
      </trkpt>
      <trkpt lat="47.00633" lon="5.78153">
        <ele>234</ele>
        <time>2018-10-04T13:14:51Z</time>
      </trkpt>
      <trkpt lat="47.00628" lon="5.78139">
        <ele>233</ele>
        <time>2018-10-04T13:14:59Z</time>
      </trkpt>
      <trkpt lat="47.00625" lon="5.78133">
        <ele>234</ele>
        <time>2018-10-04T13:15:03Z</time>
      </trkpt>
      <trkpt lat="47.00622" lon="5.78126">
        <ele>233</ele>
        <time>2018-10-04T13:15:07Z</time>
      </trkpt>
      <trkpt lat="47.00614" lon="5.78106">
        <ele>234</ele>
        <time>2018-10-04T13:15:18Z</time>
      </trkpt>
      <trkpt lat="47.0061" lon="5.781">
        <ele>233</ele>
        <time>2018-10-04T13:15:22Z</time>
      </trkpt>
      <trkpt lat="47.00604" lon="5.78088">
        <ele>233</ele>
        <time>2018-10-04T13:15:29Z</time>
      </trkpt>
      <trkpt lat="47.00593" lon="5.78063">
        <ele>231</ele>
        <time>2018-10-04T13:15:44Z</time>
      </trkpt>
      <trkpt lat="47.00588" lon="5.78049">
        <ele>232</ele>
        <time>2018-10-04T13:15:52Z</time>
      </trkpt>
      <trkpt lat="47.00585" lon="5.78044">
        <ele>231</ele>
        <time>2018-10-04T13:15:55Z</time>
      </trkpt>
      <trkpt lat="47.00584" lon="5.78037">
        <ele>231</ele>
        <time>2018-10-04T13:15:59Z</time>
      </trkpt>
      <trkpt lat="47.00581" lon="5.78029">
        <ele>231</ele>
        <time>2018-10-04T13:16:04Z</time>
      </trkpt>
      <trkpt lat="47.00575" lon="5.78015">
        <ele>231</ele>
        <time>2018-10-04T13:16:12Z</time>
      </trkpt>
      <trkpt lat="47.00573" lon="5.78009">
        <ele>232</ele>
        <time>2018-10-04T13:16:16Z</time>
      </trkpt>
      <trkpt lat="47.00571" lon="5.78002">
        <ele>232</ele>
        <time>2018-10-04T13:16:20Z</time>
      </trkpt>
      <trkpt lat="47.00569" lon="5.77994">
        <ele>232</ele>
        <time>2018-10-04T13:16:24Z</time>
      </trkpt>
      <trkpt lat="47.00566" lon="5.77989">
        <ele>232</ele>
        <time>2018-10-04T13:16:28Z</time>
      </trkpt>
      <trkpt lat="47.00545" lon="5.77956">
        <ele>234</ele>
        <time>2018-10-04T13:16:51Z</time>
      </trkpt>
      <trkpt lat="47.00533" lon="5.77941">
        <ele>234</ele>
        <time>2018-10-04T13:17:02Z</time>
      </trkpt>
      <trkpt lat="47.00521" lon="5.77915">
        <ele>236</ele>
        <time>2018-10-04T13:17:22Z</time>
      </trkpt>
      <trkpt lat="47.00517" lon="5.77909">
        <ele>236</ele>
        <time>2018-10-04T13:17:26Z</time>
      </trkpt>
      <trkpt lat="47.00493" lon="5.77866">
        <ele>236</ele>
        <time>2018-10-04T13:17:50Z</time>
      </trkpt>
      <trkpt lat="47.00482" lon="5.77857">
        <ele>236</ele>
        <time>2018-10-04T13:18:00Z</time>
      </trkpt>
      <trkpt lat="47.00473" lon="5.77848">
        <ele>236</ele>
        <time>2018-10-04T13:18:08Z</time>
      </trkpt>
      <trkpt lat="47.00469" lon="5.77845">
        <ele>235</ele>
        <time>2018-10-04T13:18:11Z</time>
      </trkpt>
      <trkpt lat="47.0046" lon="5.77834">
        <ele>235</ele>
        <time>2018-10-04T13:18:18Z</time>
      </trkpt>
      <trkpt lat="47.00453" lon="5.77825">
        <ele>236</ele>
        <time>2018-10-04T13:18:25Z</time>
      </trkpt>
      <trkpt lat="47.0045" lon="5.77818">
        <ele>236</ele>
        <time>2018-10-04T13:18:29Z</time>
      </trkpt>
      <trkpt lat="47.00444" lon="5.77807">
        <ele>236</ele>
        <time>2018-10-04T13:18:37Z</time>
      </trkpt>
      <trkpt lat="47.0044" lon="5.77803">
        <ele>236</ele>
        <time>2018-10-04T13:18:41Z</time>
      </trkpt>
      <trkpt lat="47.00437" lon="5.77796">
        <ele>236</ele>
        <time>2018-10-04T13:18:46Z</time>
      </trkpt>
      <trkpt lat="47.00431" lon="5.77797">
        <ele>235</ele>
        <time>2018-10-04T13:19:08Z</time>
      </trkpt>
      <trkpt lat="47.00432" lon="5.77788">
        <ele>239</ele>
        <time>2018-10-04T13:25:24Z</time>
      </trkpt>
      <trkpt lat="47.00428" lon="5.77783">
        <ele>239</ele>
        <time>2018-10-04T13:25:30Z</time>
      </trkpt>
      <trkpt lat="47.00425" lon="5.77778">
        <ele>240</ele>
        <time>2018-10-04T13:25:35Z</time>
      </trkpt>
      <trkpt lat="47.00418" lon="5.77767">
        <ele>240</ele>
        <time>2018-10-04T13:25:43Z</time>
      </trkpt>
      <trkpt lat="47.00413" lon="5.77761">
        <ele>238</ele>
        <time>2018-10-04T13:25:48Z</time>
      </trkpt>
      <trkpt lat="47.00399" lon="5.77745">
        <ele>237</ele>
        <time>2018-10-04T13:26:02Z</time>
      </trkpt>
      <trkpt lat="47.00396" lon="5.77741">
        <ele>237</ele>
        <time>2018-10-04T13:26:06Z</time>
      </trkpt>
      <trkpt lat="47.00394" lon="5.77734">
        <ele>236</ele>
        <time>2018-10-04T13:26:11Z</time>
      </trkpt>
      <trkpt lat="47.00391" lon="5.77729">
        <ele>236</ele>
        <time>2018-10-04T13:26:15Z</time>
      </trkpt>
      <trkpt lat="47.00384" lon="5.77718">
        <ele>236</ele>
        <time>2018-10-04T13:26:23Z</time>
      </trkpt>
      <trkpt lat="47.0038" lon="5.77713">
        <ele>236</ele>
        <time>2018-10-04T13:26:27Z</time>
      </trkpt>
      <trkpt lat="47.00377" lon="5.77708">
        <ele>236</ele>
        <time>2018-10-04T13:26:31Z</time>
      </trkpt>
      <trkpt lat="47.00373" lon="5.77705">
        <ele>235</ele>
        <time>2018-10-04T13:26:35Z</time>
      </trkpt>
      <trkpt lat="47.00364" lon="5.77695">
        <ele>235</ele>
        <time>2018-10-04T13:26:43Z</time>
      </trkpt>
      <trkpt lat="47.00353" lon="5.77677">
        <ele>236</ele>
        <time>2018-10-04T13:26:56Z</time>
      </trkpt>
      <trkpt lat="47.0035" lon="5.77672">
        <ele>236</ele>
        <time>2018-10-04T13:27:00Z</time>
      </trkpt>
      <trkpt lat="47.00347" lon="5.77667">
        <ele>236</ele>
        <time>2018-10-04T13:27:04Z</time>
      </trkpt>
      <trkpt lat="47.00343" lon="5.77662">
        <ele>236</ele>
        <time>2018-10-04T13:27:09Z</time>
      </trkpt>
      <trkpt lat="47.00339" lon="5.77658">
        <ele>237</ele>
        <time>2018-10-04T13:27:13Z</time>
      </trkpt>
      <trkpt lat="47.00314" lon="5.77615">
        <ele>237</ele>
        <time>2018-10-04T13:27:46Z</time>
      </trkpt>
      <trkpt lat="47.0031" lon="5.7761">
        <ele>237</ele>
        <time>2018-10-04T13:27:50Z</time>
      </trkpt>
      <trkpt lat="47.00294" lon="5.77586">
        <ele>239</ele>
        <time>2018-10-04T13:28:09Z</time>
      </trkpt>
      <trkpt lat="47.00292" lon="5.7758">
        <ele>239</ele>
        <time>2018-10-04T13:28:13Z</time>
      </trkpt>
      <trkpt lat="47.00287" lon="5.77575">
        <ele>239</ele>
        <time>2018-10-04T13:28:17Z</time>
      </trkpt>
      <trkpt lat="47.00277" lon="5.77558">
        <ele>240</ele>
        <time>2018-10-04T13:28:30Z</time>
      </trkpt>
      <trkpt lat="47.00273" lon="5.77554">
        <ele>240</ele>
        <time>2018-10-04T13:28:34Z</time>
      </trkpt>
      <trkpt lat="47.00265" lon="5.77544">
        <ele>240</ele>
        <time>2018-10-04T13:28:43Z</time>
      </trkpt>
      <trkpt lat="47.00252" lon="5.77525">
        <ele>239</ele>
        <time>2018-10-04T13:28:57Z</time>
      </trkpt>
      <trkpt lat="47.00248" lon="5.77519">
        <ele>240</ele>
        <time>2018-10-04T13:29:02Z</time>
      </trkpt>
      <trkpt lat="47.00233" lon="5.77508">
        <ele>238</ele>
        <time>2018-10-04T13:29:15Z</time>
      </trkpt>
      <trkpt lat="47.0023" lon="5.77503">
        <ele>238</ele>
        <time>2018-10-04T13:29:20Z</time>
      </trkpt>
      <trkpt lat="47.00225" lon="5.77498">
        <ele>237</ele>
        <time>2018-10-04T13:29:25Z</time>
      </trkpt>
      <trkpt lat="47.00216" lon="5.77496">
        <ele>237</ele>
        <time>2018-10-04T13:29:33Z</time>
      </trkpt>
      <trkpt lat="47.00208" lon="5.77496">
        <ele>238</ele>
        <time>2018-10-04T13:29:41Z</time>
      </trkpt>
      <trkpt lat="47.00198" lon="5.77493">
        <ele>238</ele>
        <time>2018-10-04T13:29:48Z</time>
      </trkpt>
      <trkpt lat="47.00191" lon="5.77495">
        <ele>238</ele>
        <time>2018-10-04T13:29:54Z</time>
      </trkpt>
      <trkpt lat="47.00186" lon="5.77494">
        <ele>237</ele>
        <time>2018-10-04T13:29:58Z</time>
      </trkpt>
      <trkpt lat="47.0018" lon="5.77495">
        <ele>238</ele>
        <time>2018-10-04T13:30:03Z</time>
      </trkpt>
      <trkpt lat="47.00175" lon="5.77493">
        <ele>237</ele>
        <time>2018-10-04T13:30:08Z</time>
      </trkpt>
      <trkpt lat="47.0017" lon="5.77492">
        <ele>237</ele>
        <time>2018-10-04T13:30:11Z</time>
      </trkpt>
      <trkpt lat="47.00155" lon="5.77489">
        <ele>235</ele>
        <time>2018-10-04T13:30:23Z</time>
      </trkpt>
      <trkpt lat="47.0015" lon="5.77486">
        <ele>236</ele>
        <time>2018-10-04T13:30:28Z</time>
      </trkpt>
      <trkpt lat="47.00141" lon="5.77481">
        <ele>235</ele>
        <time>2018-10-04T13:30:36Z</time>
      </trkpt>
      <trkpt lat="47.00137" lon="5.77476">
        <ele>236</ele>
        <time>2018-10-04T13:30:40Z</time>
      </trkpt>
      <trkpt lat="47.00128" lon="5.77469">
        <ele>236</ele>
        <time>2018-10-04T13:30:48Z</time>
      </trkpt>
      <trkpt lat="47.00123" lon="5.77465">
        <ele>237</ele>
        <time>2018-10-04T13:30:53Z</time>
      </trkpt>
      <trkpt lat="47.00083" lon="5.77445">
        <ele>235</ele>
        <time>2018-10-04T13:31:25Z</time>
      </trkpt>
      <trkpt lat="47.00078" lon="5.77445">
        <ele>235</ele>
        <time>2018-10-04T13:31:30Z</time>
      </trkpt>
      <trkpt lat="47.00073" lon="5.77442">
        <ele>236</ele>
        <time>2018-10-04T13:31:34Z</time>
      </trkpt>
      <trkpt lat="47.00063" lon="5.77435">
        <ele>236</ele>
        <time>2018-10-04T13:31:41Z</time>
      </trkpt>
      <trkpt lat="47.00059" lon="5.77432">
        <ele>237</ele>
        <time>2018-10-04T13:31:45Z</time>
      </trkpt>
      <trkpt lat="47.00031" lon="5.77413">
        <ele>238</ele>
        <time>2018-10-04T13:32:12Z</time>
      </trkpt>
      <trkpt lat="47.00027" lon="5.7741">
        <ele>238</ele>
        <time>2018-10-04T13:32:16Z</time>
      </trkpt>
      <trkpt lat="47.00021" lon="5.77409">
        <ele>238</ele>
        <time>2018-10-04T13:32:21Z</time>
      </trkpt>
      <trkpt lat="47.00001" lon="5.77407">
        <ele>238</ele>
        <time>2018-10-04T13:32:36Z</time>
      </trkpt>
      <trkpt lat="46.99996" lon="5.77405">
        <ele>237</ele>
        <time>2018-10-04T13:32:39Z</time>
      </trkpt>
      <trkpt lat="46.99991" lon="5.77401">
        <ele>237</ele>
        <time>2018-10-04T13:32:43Z</time>
      </trkpt>
      <trkpt lat="46.99981" lon="5.774">
        <ele>237</ele>
        <time>2018-10-04T13:32:51Z</time>
      </trkpt>
      <trkpt lat="46.99975" lon="5.77401">
        <ele>238</ele>
        <time>2018-10-04T13:32:55Z</time>
      </trkpt>
      <trkpt lat="46.99971" lon="5.77401">
        <ele>237</ele>
        <time>2018-10-04T13:32:58Z</time>
      </trkpt>
      <trkpt lat="46.99965" lon="5.77399">
        <ele>237</ele>
        <time>2018-10-04T13:33:02Z</time>
      </trkpt>
      <trkpt lat="46.9996" lon="5.77401">
        <ele>238</ele>
        <time>2018-10-04T13:33:07Z</time>
      </trkpt>
      <trkpt lat="46.9995" lon="5.77403">
        <ele>239</ele>
        <time>2018-10-04T13:33:15Z</time>
      </trkpt>
      <trkpt lat="46.99945" lon="5.77401">
        <ele>239</ele>
        <time>2018-10-04T13:33:20Z</time>
      </trkpt>
      <trkpt lat="46.99937" lon="5.77408">
        <ele>241</ele>
        <time>2018-10-04T13:33:33Z</time>
      </trkpt>
      <trkpt lat="46.99932" lon="5.77411">
        <ele>241</ele>
        <time>2018-10-04T13:33:41Z</time>
      </trkpt>
      <trkpt lat="46.99927" lon="5.77414">
        <ele>241</ele>
        <time>2018-10-04T13:33:45Z</time>
      </trkpt>
      <trkpt lat="46.99917" lon="5.77419">
        <ele>241</ele>
        <time>2018-10-04T13:33:53Z</time>
      </trkpt>
      <trkpt lat="46.99912" lon="5.77421">
        <ele>241</ele>
        <time>2018-10-04T13:33:57Z</time>
      </trkpt>
      <trkpt lat="46.99909" lon="5.77427">
        <ele>241</ele>
        <time>2018-10-04T13:34:01Z</time>
      </trkpt>
      <trkpt lat="46.99903" lon="5.7743">
        <ele>242</ele>
        <time>2018-10-04T13:34:09Z</time>
      </trkpt>
      <trkpt lat="46.99899" lon="5.77429">
        <ele>242</ele>
        <time>2018-10-04T13:34:14Z</time>
      </trkpt>
      <trkpt lat="46.99891" lon="5.7743">
        <ele>243</ele>
        <time>2018-10-04T13:34:21Z</time>
      </trkpt>
      <trkpt lat="46.99887" lon="5.77434">
        <ele>243</ele>
        <time>2018-10-04T13:34:26Z</time>
      </trkpt>
      <trkpt lat="46.99881" lon="5.77435">
        <ele>244</ele>
        <time>2018-10-04T13:34:34Z</time>
      </trkpt>
      <trkpt lat="46.99875" lon="5.77432">
        <ele>245</ele>
        <time>2018-10-04T13:34:39Z</time>
      </trkpt>
      <trkpt lat="46.9987" lon="5.77431">
        <ele>244</ele>
        <time>2018-10-04T13:34:43Z</time>
      </trkpt>
      <trkpt lat="46.99865" lon="5.77428">
        <ele>245</ele>
        <time>2018-10-04T13:34:48Z</time>
      </trkpt>
      <trkpt lat="46.99854" lon="5.77424">
        <ele>245</ele>
        <time>2018-10-04T13:34:56Z</time>
      </trkpt>
      <trkpt lat="46.99848" lon="5.77423">
        <ele>245</ele>
        <time>2018-10-04T13:35:00Z</time>
      </trkpt>
      <trkpt lat="46.99843" lon="5.7742">
        <ele>245</ele>
        <time>2018-10-04T13:35:05Z</time>
      </trkpt>
      <trkpt lat="46.99839" lon="5.77416">
        <ele>245</ele>
        <time>2018-10-04T13:35:10Z</time>
      </trkpt>
      <trkpt lat="46.99814" lon="5.77398">
        <ele>243</ele>
        <time>2018-10-04T13:35:31Z</time>
      </trkpt>
      <trkpt lat="46.99809" lon="5.77399">
        <ele>242</ele>
        <time>2018-10-04T13:35:35Z</time>
      </trkpt>
      <trkpt lat="46.99799" lon="5.77395">
        <ele>241</ele>
        <time>2018-10-04T13:35:44Z</time>
      </trkpt>
      <trkpt lat="46.99794" lon="5.77392">
        <ele>242</ele>
        <time>2018-10-04T13:35:48Z</time>
      </trkpt>
      <trkpt lat="46.99789" lon="5.7739">
        <ele>241</ele>
        <time>2018-10-04T13:35:51Z</time>
      </trkpt>
      <trkpt lat="46.99785" lon="5.77388">
        <ele>241</ele>
        <time>2018-10-04T13:35:55Z</time>
      </trkpt>
      <trkpt lat="46.99774" lon="5.77389">
        <ele>241</ele>
        <time>2018-10-04T13:36:03Z</time>
      </trkpt>
      <trkpt lat="46.99769" lon="5.77388">
        <ele>241</ele>
        <time>2018-10-04T13:36:07Z</time>
      </trkpt>
      <trkpt lat="46.99765" lon="5.77387">
        <ele>240</ele>
        <time>2018-10-04T13:36:10Z</time>
      </trkpt>
      <trkpt lat="46.99755" lon="5.77387">
        <ele>240</ele>
        <time>2018-10-04T13:36:19Z</time>
      </trkpt>
      <trkpt lat="46.9975" lon="5.77385">
        <ele>240</ele>
        <time>2018-10-04T13:36:22Z</time>
      </trkpt>
      <trkpt lat="46.99746" lon="5.77386">
        <ele>241</ele>
        <time>2018-10-04T13:36:26Z</time>
      </trkpt>
      <trkpt lat="46.99741" lon="5.77389">
        <ele>242</ele>
        <time>2018-10-04T13:36:31Z</time>
      </trkpt>
      <trkpt lat="46.99736" lon="5.7739">
        <ele>241</ele>
        <time>2018-10-04T13:36:34Z</time>
      </trkpt>
      <trkpt lat="46.99731" lon="5.77392">
        <ele>242</ele>
        <time>2018-10-04T13:36:39Z</time>
      </trkpt>
      <trkpt lat="46.99722" lon="5.77397">
        <ele>241</ele>
        <time>2018-10-04T13:36:47Z</time>
      </trkpt>
      <trkpt lat="46.99717" lon="5.77398">
        <ele>242</ele>
        <time>2018-10-04T13:36:51Z</time>
      </trkpt>
      <trkpt lat="46.99712" lon="5.77401">
        <ele>243</ele>
        <time>2018-10-04T13:36:56Z</time>
      </trkpt>
      <trkpt lat="46.99707" lon="5.77401">
        <ele>242</ele>
        <time>2018-10-04T13:37:01Z</time>
      </trkpt>
      <trkpt lat="46.997" lon="5.77402">
        <ele>242</ele>
        <time>2018-10-04T13:37:05Z</time>
      </trkpt>
      <trkpt lat="46.99681" lon="5.77408">
        <ele>243</ele>
        <time>2018-10-04T13:37:21Z</time>
      </trkpt>
      <trkpt lat="46.99676" lon="5.77407">
        <ele>244</ele>
        <time>2018-10-04T13:37:25Z</time>
      </trkpt>
      <trkpt lat="46.99665" lon="5.77409">
        <ele>246</ele>
        <time>2018-10-04T13:37:34Z</time>
      </trkpt>
      <trkpt lat="46.99655" lon="5.77407">
        <ele>248</ele>
        <time>2018-10-04T13:37:40Z</time>
      </trkpt>
      <trkpt lat="46.99646" lon="5.77406">
        <ele>248</ele>
        <time>2018-10-04T13:37:49Z</time>
      </trkpt>
      <trkpt lat="46.99641" lon="5.77405">
        <ele>248</ele>
        <time>2018-10-04T13:37:53Z</time>
      </trkpt>
      <trkpt lat="46.99636" lon="5.77403">
        <ele>249</ele>
        <time>2018-10-04T13:37:57Z</time>
      </trkpt>
      <trkpt lat="46.9963" lon="5.77403">
        <ele>248</ele>
        <time>2018-10-04T13:38:01Z</time>
      </trkpt>
      <trkpt lat="46.9962" lon="5.774">
        <ele>250</ele>
        <time>2018-10-04T13:38:09Z</time>
      </trkpt>
      <trkpt lat="46.99615" lon="5.77401">
        <ele>250</ele>
        <time>2018-10-04T13:38:13Z</time>
      </trkpt>
      <trkpt lat="46.99605" lon="5.77407">
        <ele>251</ele>
        <time>2018-10-04T13:38:23Z</time>
      </trkpt>
      <trkpt lat="46.99595" lon="5.77405">
        <ele>249</ele>
        <time>2018-10-04T13:38:31Z</time>
      </trkpt>
      <trkpt lat="46.9959" lon="5.77408">
        <ele>249</ele>
        <time>2018-10-04T13:38:35Z</time>
      </trkpt>
      <trkpt lat="46.99585" lon="5.77408">
        <ele>249</ele>
        <time>2018-10-04T13:38:38Z</time>
      </trkpt>
      <trkpt lat="46.9958" lon="5.77409">
        <ele>250</ele>
        <time>2018-10-04T13:38:41Z</time>
      </trkpt>
      <trkpt lat="46.9957" lon="5.77413">
        <ele>248</ele>
        <time>2018-10-04T13:38:49Z</time>
      </trkpt>
      <trkpt lat="46.99565" lon="5.77416">
        <ele>248</ele>
        <time>2018-10-04T13:38:54Z</time>
      </trkpt>
      <trkpt lat="46.9956" lon="5.7742">
        <ele>249</ele>
        <time>2018-10-04T13:38:58Z</time>
      </trkpt>
      <trkpt lat="46.99556" lon="5.77423">
        <ele>249</ele>
        <time>2018-10-04T13:39:02Z</time>
      </trkpt>
      <trkpt lat="46.99552" lon="5.77427">
        <ele>249</ele>
        <time>2018-10-04T13:39:05Z</time>
      </trkpt>
      <trkpt lat="46.99544" lon="5.77426">
        <ele>251</ele>
        <time>2018-10-04T13:39:15Z</time>
      </trkpt>
      <trkpt lat="46.99535" lon="5.77421">
        <ele>250</ele>
        <time>2018-10-04T13:39:25Z</time>
      </trkpt>
      <trkpt lat="46.99519" lon="5.77421">
        <ele>249</ele>
        <time>2018-10-04T13:39:38Z</time>
      </trkpt>
      <trkpt lat="46.99514" lon="5.77423">
        <ele>248</ele>
        <time>2018-10-04T13:39:42Z</time>
      </trkpt>
      <trkpt lat="46.9951" lon="5.77423">
        <ele>248</ele>
        <time>2018-10-04T13:39:46Z</time>
      </trkpt>
      <trkpt lat="46.99505" lon="5.77422">
        <ele>248</ele>
        <time>2018-10-04T13:39:49Z</time>
      </trkpt>
      <trkpt lat="46.99499" lon="5.77422">
        <ele>248</ele>
        <time>2018-10-04T13:39:53Z</time>
      </trkpt>
      <trkpt lat="46.99494" lon="5.77423">
        <ele>248</ele>
        <time>2018-10-04T13:39:56Z</time>
      </trkpt>
      <trkpt lat="46.9949" lon="5.77426">
        <ele>248</ele>
        <time>2018-10-04T13:40:01Z</time>
      </trkpt>
      <trkpt lat="46.99461" lon="5.77439">
        <ele>246</ele>
        <time>2018-10-04T13:40:21Z</time>
      </trkpt>
      <trkpt lat="46.99456" lon="5.77438">
        <ele>246</ele>
        <time>2018-10-04T13:40:24Z</time>
      </trkpt>
      <trkpt lat="46.99451" lon="5.77439">
        <ele>246</ele>
        <time>2018-10-04T13:40:28Z</time>
      </trkpt>
      <trkpt lat="46.99445" lon="5.77437">
        <ele>246</ele>
        <time>2018-10-04T13:40:33Z</time>
      </trkpt>
      <trkpt lat="46.9944" lon="5.77438">
        <ele>246</ele>
        <time>2018-10-04T13:40:37Z</time>
      </trkpt>
      <trkpt lat="46.99434" lon="5.7744">
        <ele>246</ele>
        <time>2018-10-04T13:40:41Z</time>
      </trkpt>
      <trkpt lat="46.9943" lon="5.77443">
        <ele>247</ele>
        <time>2018-10-04T13:40:45Z</time>
      </trkpt>
      <trkpt lat="46.99426" lon="5.77446">
        <ele>247</ele>
        <time>2018-10-04T13:40:49Z</time>
      </trkpt>
      <trkpt lat="46.9942" lon="5.77449">
        <ele>246</ele>
        <time>2018-10-04T13:40:55Z</time>
      </trkpt>
      <trkpt lat="46.99415" lon="5.77451">
        <ele>246</ele>
        <time>2018-10-04T13:41:00Z</time>
      </trkpt>
      <trkpt lat="46.99411" lon="5.77452">
        <ele>246</ele>
        <time>2018-10-04T13:41:04Z</time>
      </trkpt>
      <trkpt lat="46.99405" lon="5.77452">
        <ele>245</ele>
        <time>2018-10-04T13:41:08Z</time>
      </trkpt>
      <trkpt lat="46.99399" lon="5.77453">
        <ele>245</ele>
        <time>2018-10-04T13:41:12Z</time>
      </trkpt>
      <trkpt lat="46.99394" lon="5.77452">
        <ele>245</ele>
        <time>2018-10-04T13:41:15Z</time>
      </trkpt>
      <trkpt lat="46.99384" lon="5.77456">
        <ele>246</ele>
        <time>2018-10-04T13:41:24Z</time>
      </trkpt>
      <trkpt lat="46.99374" lon="5.77458">
        <ele>247</ele>
        <time>2018-10-04T13:41:33Z</time>
      </trkpt>
      <trkpt lat="46.99369" lon="5.77459">
        <ele>247</ele>
        <time>2018-10-04T13:41:37Z</time>
      </trkpt>
      <trkpt lat="46.99363" lon="5.77459">
        <ele>248</ele>
        <time>2018-10-04T13:41:42Z</time>
      </trkpt>
      <trkpt lat="46.99352" lon="5.77461">
        <ele>248</ele>
        <time>2018-10-04T13:41:51Z</time>
      </trkpt>
      <trkpt lat="46.99347" lon="5.77463">
        <ele>248</ele>
        <time>2018-10-04T13:41:54Z</time>
      </trkpt>
      <trkpt lat="46.99342" lon="5.77466">
        <ele>248</ele>
        <time>2018-10-04T13:41:58Z</time>
      </trkpt>
      <trkpt lat="46.99337" lon="5.77467">
        <ele>249</ele>
        <time>2018-10-04T13:42:03Z</time>
      </trkpt>
      <trkpt lat="46.99332" lon="5.77468">
        <ele>249</ele>
        <time>2018-10-04T13:42:06Z</time>
      </trkpt>
      <trkpt lat="46.99324" lon="5.77471">
        <ele>250</ele>
        <time>2018-10-04T13:42:15Z</time>
      </trkpt>
      <trkpt lat="46.99318" lon="5.77471">
        <ele>249</ele>
        <time>2018-10-04T13:42:23Z</time>
      </trkpt>
      <trkpt lat="46.99307" lon="5.77472">
        <ele>249</ele>
        <time>2018-10-04T13:42:32Z</time>
      </trkpt>
      <trkpt lat="46.99302" lon="5.77472">
        <ele>249</ele>
        <time>2018-10-04T13:42:36Z</time>
      </trkpt>
      <trkpt lat="46.99297" lon="5.77474">
        <ele>249</ele>
        <time>2018-10-04T13:42:41Z</time>
      </trkpt>
      <trkpt lat="46.99291" lon="5.77475">
        <ele>249</ele>
        <time>2018-10-04T13:42:46Z</time>
      </trkpt>
      <trkpt lat="46.99281" lon="5.77473">
        <ele>246</ele>
        <time>2018-10-04T13:42:53Z</time>
      </trkpt>
      <trkpt lat="46.99277" lon="5.77476">
        <ele>245</ele>
        <time>2018-10-04T13:42:58Z</time>
      </trkpt>
      <trkpt lat="46.99271" lon="5.77477">
        <ele>245</ele>
        <time>2018-10-04T13:43:02Z</time>
      </trkpt>
      <trkpt lat="46.99267" lon="5.7748">
        <ele>244</ele>
        <time>2018-10-04T13:43:06Z</time>
      </trkpt>
      <trkpt lat="46.99256" lon="5.7748">
        <ele>245</ele>
        <time>2018-10-04T13:43:13Z</time>
      </trkpt>
      <trkpt lat="46.99252" lon="5.7748">
        <ele>244</ele>
        <time>2018-10-04T13:43:17Z</time>
      </trkpt>
      <trkpt lat="46.99246" lon="5.77481">
        <ele>244</ele>
        <time>2018-10-04T13:43:21Z</time>
      </trkpt>
      <trkpt lat="46.99236" lon="5.77483">
        <ele>246</ele>
        <time>2018-10-04T13:43:32Z</time>
      </trkpt>
      <trkpt lat="46.99222" lon="5.77484">
        <ele>246</ele>
        <time>2018-10-04T13:43:43Z</time>
      </trkpt>
      <trkpt lat="46.99203" lon="5.7748">
        <ele>246</ele>
        <time>2018-10-04T13:43:59Z</time>
      </trkpt>
      <trkpt lat="46.99193" lon="5.77484">
        <ele>247</ele>
        <time>2018-10-04T13:44:06Z</time>
      </trkpt>
      <trkpt lat="46.99183" lon="5.77482">
        <ele>248</ele>
        <time>2018-10-04T13:44:12Z</time>
      </trkpt>
      <trkpt lat="46.99175" lon="5.77485">
        <ele>248</ele>
        <time>2018-10-04T13:44:20Z</time>
      </trkpt>
      <trkpt lat="46.99171" lon="5.77487">
        <ele>248</ele>
        <time>2018-10-04T13:44:24Z</time>
      </trkpt>
      <trkpt lat="46.99165" lon="5.77489">
        <ele>248</ele>
        <time>2018-10-04T13:44:28Z</time>
      </trkpt>
      <trkpt lat="46.99161" lon="5.7749">
        <ele>248</ele>
        <time>2018-10-04T13:44:32Z</time>
      </trkpt>
      <trkpt lat="46.9915" lon="5.77492">
        <ele>247</ele>
        <time>2018-10-04T13:44:41Z</time>
      </trkpt>
      <trkpt lat="46.9914" lon="5.77498">
        <ele>244</ele>
        <time>2018-10-04T13:44:49Z</time>
      </trkpt>
      <trkpt lat="46.99136" lon="5.77502">
        <ele>245</ele>
        <time>2018-10-04T13:44:52Z</time>
      </trkpt>
      <trkpt lat="46.99131" lon="5.77507">
        <ele>244</ele>
        <time>2018-10-04T13:44:56Z</time>
      </trkpt>
      <trkpt lat="46.99127" lon="5.7751">
        <ele>244</ele>
        <time>2018-10-04T13:45:00Z</time>
      </trkpt>
      <trkpt lat="46.99123" lon="5.77515">
        <ele>243</ele>
        <time>2018-10-04T13:45:04Z</time>
      </trkpt>
      <trkpt lat="46.99119" lon="5.77519">
        <ele>243</ele>
        <time>2018-10-04T13:45:08Z</time>
      </trkpt>
      <trkpt lat="46.99115" lon="5.77523">
        <ele>243</ele>
        <time>2018-10-04T13:45:12Z</time>
      </trkpt>
      <trkpt lat="46.99111" lon="5.77526">
        <ele>242</ele>
        <time>2018-10-04T13:45:16Z</time>
      </trkpt>
      <trkpt lat="46.99097" lon="5.77537">
        <ele>243</ele>
        <time>2018-10-04T13:45:28Z</time>
      </trkpt>
      <trkpt lat="46.99093" lon="5.77539">
        <ele>243</ele>
        <time>2018-10-04T13:45:32Z</time>
      </trkpt>
      <trkpt lat="46.99088" lon="5.77541">
        <ele>244</ele>
        <time>2018-10-04T13:45:36Z</time>
      </trkpt>
      <trkpt lat="46.99083" lon="5.7754">
        <ele>244</ele>
        <time>2018-10-04T13:45:40Z</time>
      </trkpt>
      <trkpt lat="46.99083" lon="5.77544">
        <ele>243</ele>
        <time>2018-10-04T13:46:28Z</time>
      </trkpt>
      <trkpt lat="46.99076" lon="5.77542">
        <ele>245</ele>
        <time>2018-10-04T13:46:57Z</time>
      </trkpt>
      <trkpt lat="46.99071" lon="5.77531">
        <ele>244</ele>
        <time>2018-10-04T13:47:33Z</time>
      </trkpt>
      <trkpt lat="46.99069" lon="5.77523">
        <ele>244</ele>
        <time>2018-10-04T13:47:39Z</time>
      </trkpt>
      <trkpt lat="46.99068" lon="5.77511">
        <ele>241</ele>
        <time>2018-10-04T13:47:47Z</time>
      </trkpt>
      <trkpt lat="46.99071" lon="5.77504">
        <ele>242</ele>
        <time>2018-10-04T13:47:52Z</time>
      </trkpt>
      <trkpt lat="46.99074" lon="5.77497">
        <ele>243</ele>
        <time>2018-10-04T13:47:56Z</time>
      </trkpt>
      <trkpt lat="46.99077" lon="5.77492">
        <ele>243</ele>
        <time>2018-10-04T13:48:00Z</time>
      </trkpt>
      <trkpt lat="46.99082" lon="5.77477">
        <ele>241</ele>
        <time>2018-10-04T13:48:09Z</time>
      </trkpt>
      <trkpt lat="46.99088" lon="5.77464">
        <ele>242</ele>
        <time>2018-10-04T13:48:18Z</time>
      </trkpt>
      <trkpt lat="46.99095" lon="5.77445">
        <ele>243</ele>
        <time>2018-10-04T13:48:33Z</time>
      </trkpt>
      <trkpt lat="46.99096" lon="5.77437">
        <ele>243</ele>
        <time>2018-10-04T13:48:37Z</time>
      </trkpt>
      <trkpt lat="46.99098" lon="5.77429">
        <ele>244</ele>
        <time>2018-10-04T13:48:41Z</time>
      </trkpt>
      <trkpt lat="46.99102" lon="5.77416">
        <ele>244</ele>
        <time>2018-10-04T13:48:50Z</time>
      </trkpt>
      <trkpt lat="46.99104" lon="5.7741">
        <ele>244</ele>
        <time>2018-10-04T13:48:54Z</time>
      </trkpt>
      <trkpt lat="46.99106" lon="5.77403">
        <ele>244</ele>
        <time>2018-10-04T13:48:58Z</time>
      </trkpt>
      <trkpt lat="46.99109" lon="5.77397">
        <ele>244</ele>
        <time>2018-10-04T13:49:02Z</time>
      </trkpt>
      <trkpt lat="46.99114" lon="5.77382">
        <ele>244</ele>
        <time>2018-10-04T13:49:11Z</time>
      </trkpt>
      <trkpt lat="46.99115" lon="5.77376">
        <ele>245</ele>
        <time>2018-10-04T13:49:15Z</time>
      </trkpt>
      <trkpt lat="46.99119" lon="5.77361">
        <ele>245</ele>
        <time>2018-10-04T13:49:23Z</time>
      </trkpt>
      <trkpt lat="46.9912" lon="5.77354">
        <ele>244</ele>
        <time>2018-10-04T13:49:27Z</time>
      </trkpt>
      <trkpt lat="46.99123" lon="5.77348">
        <ele>244</ele>
        <time>2018-10-04T13:49:31Z</time>
      </trkpt>
      <trkpt lat="46.99125" lon="5.77341">
        <ele>243</ele>
        <time>2018-10-04T13:49:35Z</time>
      </trkpt>
      <trkpt lat="46.99127" lon="5.77335">
        <ele>243</ele>
        <time>2018-10-04T13:49:39Z</time>
      </trkpt>
      <trkpt lat="46.99129" lon="5.77327">
        <ele>244</ele>
        <time>2018-10-04T13:49:43Z</time>
      </trkpt>
      <trkpt lat="46.99132" lon="5.77321">
        <ele>244</ele>
        <time>2018-10-04T13:49:47Z</time>
      </trkpt>
      <trkpt lat="46.99134" lon="5.77315">
        <ele>243</ele>
        <time>2018-10-04T13:49:51Z</time>
      </trkpt>
      <trkpt lat="46.99138" lon="5.77308">
        <ele>244</ele>
        <time>2018-10-04T13:49:55Z</time>
      </trkpt>
      <trkpt lat="46.99143" lon="5.77295">
        <ele>243</ele>
        <time>2018-10-04T13:50:03Z</time>
      </trkpt>
      <trkpt lat="46.99146" lon="5.77289">
        <ele>243</ele>
        <time>2018-10-04T13:50:07Z</time>
      </trkpt>
      <trkpt lat="46.99148" lon="5.77283">
        <ele>244</ele>
        <time>2018-10-04T13:50:11Z</time>
      </trkpt>
      <trkpt lat="46.99151" lon="5.77277">
        <ele>244</ele>
        <time>2018-10-04T13:50:15Z</time>
      </trkpt>
      <trkpt lat="46.99153" lon="5.7727">
        <ele>243</ele>
        <time>2018-10-04T13:50:20Z</time>
      </trkpt>
      <trkpt lat="46.99155" lon="5.77264">
        <ele>243</ele>
        <time>2018-10-04T13:50:24Z</time>
      </trkpt>
      <trkpt lat="46.99156" lon="5.77256">
        <ele>243</ele>
        <time>2018-10-04T13:50:29Z</time>
      </trkpt>
      <trkpt lat="46.99152" lon="5.77251">
        <ele>244</ele>
        <time>2018-10-04T13:50:38Z</time>
      </trkpt>
      <trkpt lat="46.99147" lon="5.7725">
        <ele>243</ele>
        <time>2018-10-04T13:50:42Z</time>
      </trkpt>
      <trkpt lat="46.9914" lon="5.77245">
        <ele>244</ele>
        <time>2018-10-04T13:50:52Z</time>
      </trkpt>
      <trkpt lat="46.99137" lon="5.77239">
        <ele>244</ele>
        <time>2018-10-04T13:50:57Z</time>
      </trkpt>
      <trkpt lat="46.99134" lon="5.77234">
        <ele>244</ele>
        <time>2018-10-04T13:51:02Z</time>
      </trkpt>
      <trkpt lat="46.99127" lon="5.77218">
        <ele>246</ele>
        <time>2018-10-04T13:51:17Z</time>
      </trkpt>
      <trkpt lat="46.99119" lon="5.77212">
        <ele>248</ele>
        <time>2018-10-04T13:51:26Z</time>
      </trkpt>
      <trkpt lat="46.991" lon="5.7721">
        <ele>251</ele>
        <time>2018-10-04T13:51:45Z</time>
      </trkpt>
      <trkpt lat="46.99095" lon="5.7721">
        <ele>251</ele>
        <time>2018-10-04T13:51:50Z</time>
      </trkpt>
      <trkpt lat="46.99088" lon="5.7721">
        <ele>251</ele>
        <time>2018-10-04T13:51:58Z</time>
      </trkpt>
      <trkpt lat="46.99083" lon="5.77209">
        <ele>251</ele>
        <time>2018-10-04T13:52:03Z</time>
      </trkpt>
      <trkpt lat="46.99076" lon="5.77211">
        <ele>251</ele>
        <time>2018-10-04T13:52:11Z</time>
      </trkpt>
      <trkpt lat="46.99072" lon="5.7721">
        <ele>251</ele>
        <time>2018-10-04T13:52:15Z</time>
      </trkpt>
      <trkpt lat="46.99063" lon="5.77209">
        <ele>252</ele>
        <time>2018-10-04T13:52:23Z</time>
      </trkpt>
      <trkpt lat="46.99054" lon="5.77211">
        <ele>250</ele>
        <time>2018-10-04T13:52:32Z</time>
      </trkpt>
      <trkpt lat="46.99048" lon="5.77208">
        <ele>250</ele>
        <time>2018-10-04T13:52:40Z</time>
      </trkpt>
      <trkpt lat="46.99037" lon="5.77205">
        <ele>250</ele>
        <time>2018-10-04T13:52:50Z</time>
      </trkpt>
      <trkpt lat="46.99016" lon="5.77184">
        <ele>252</ele>
        <time>2018-10-04T13:53:15Z</time>
      </trkpt>
      <trkpt lat="46.99006" lon="5.77184">
        <ele>250</ele>
        <time>2018-10-04T13:53:23Z</time>
      </trkpt>
      <trkpt lat="46.98997" lon="5.77181">
        <ele>252</ele>
        <time>2018-10-04T13:53:31Z</time>
      </trkpt>
      <trkpt lat="46.98987" lon="5.77176">
        <ele>251</ele>
        <time>2018-10-04T13:53:37Z</time>
      </trkpt>
      <trkpt lat="46.98979" lon="5.77171">
        <ele>251</ele>
        <time>2018-10-04T13:53:43Z</time>
      </trkpt>
      <trkpt lat="46.98969" lon="5.7717">
        <ele>249</ele>
        <time>2018-10-04T13:53:51Z</time>
      </trkpt>
      <trkpt lat="46.98961" lon="5.77167">
        <ele>250</ele>
        <time>2018-10-04T13:54:00Z</time>
      </trkpt>
      <trkpt lat="46.98953" lon="5.77161">
        <ele>250</ele>
        <time>2018-10-04T13:54:08Z</time>
      </trkpt>
      <trkpt lat="46.98944" lon="5.77151">
        <ele>252</ele>
        <time>2018-10-04T13:54:19Z</time>
      </trkpt>
      <trkpt lat="46.98937" lon="5.7714">
        <ele>253</ele>
        <time>2018-10-04T13:54:26Z</time>
      </trkpt>
      <trkpt lat="46.98933" lon="5.77136">
        <ele>253</ele>
        <time>2018-10-04T13:54:31Z</time>
      </trkpt>
      <trkpt lat="46.98926" lon="5.77126">
        <ele>258</ele>
        <time>2018-10-04T13:54:42Z</time>
      </trkpt>
      <trkpt lat="46.98923" lon="5.7712">
        <ele>259</ele>
        <time>2018-10-04T13:54:47Z</time>
      </trkpt>
      <trkpt lat="46.98922" lon="5.77113">
        <ele>261</ele>
        <time>2018-10-04T13:54:52Z</time>
      </trkpt>
      <trkpt lat="46.98918" lon="5.77102">
        <ele>263</ele>
        <time>2018-10-04T13:55:02Z</time>
      </trkpt>
      <trkpt lat="46.98917" lon="5.77093">
        <ele>265</ele>
        <time>2018-10-04T13:55:10Z</time>
      </trkpt>
      <trkpt lat="46.98916" lon="5.77086">
        <ele>266</ele>
        <time>2018-10-04T13:55:14Z</time>
      </trkpt>
      <trkpt lat="46.98913" lon="5.7708">
        <ele>266</ele>
        <time>2018-10-04T13:55:18Z</time>
      </trkpt>
      <trkpt lat="46.98908" lon="5.77074">
        <ele>265</ele>
        <time>2018-10-04T13:55:22Z</time>
      </trkpt>
      <trkpt lat="46.98904" lon="5.7707">
        <ele>267</ele>
        <time>2018-10-04T13:55:25Z</time>
      </trkpt>
      <trkpt lat="46.989" lon="5.77065">
        <ele>268</ele>
        <time>2018-10-04T13:55:30Z</time>
      </trkpt>
      <trkpt lat="46.98898" lon="5.77058">
        <ele>269</ele>
        <time>2018-10-04T13:55:35Z</time>
      </trkpt>
      <trkpt lat="46.98888" lon="5.7704">
        <ele>269</ele>
        <time>2018-10-04T13:55:50Z</time>
      </trkpt>
      <trkpt lat="46.98882" lon="5.77035">
        <ele>269</ele>
        <time>2018-10-04T13:55:56Z</time>
      </trkpt>
      <trkpt lat="46.98878" lon="5.77031">
        <ele>269</ele>
        <time>2018-10-04T13:55:59Z</time>
      </trkpt>
      <trkpt lat="46.98874" lon="5.77027">
        <ele>269</ele>
        <time>2018-10-04T13:56:02Z</time>
      </trkpt>
      <trkpt lat="46.98868" lon="5.77024">
        <ele>270</ele>
        <time>2018-10-04T13:56:06Z</time>
      </trkpt>
      <trkpt lat="46.98864" lon="5.77021">
        <ele>270</ele>
        <time>2018-10-04T13:56:09Z</time>
      </trkpt>
      <trkpt lat="46.9886" lon="5.77017">
        <ele>270</ele>
        <time>2018-10-04T13:56:13Z</time>
      </trkpt>
      <trkpt lat="46.98856" lon="5.77012">
        <ele>271</ele>
        <time>2018-10-04T13:56:17Z</time>
      </trkpt>
      <trkpt lat="46.98836" lon="5.76995">
        <ele>272</ele>
        <time>2018-10-04T13:56:34Z</time>
      </trkpt>
      <trkpt lat="46.98831" lon="5.76995">
        <ele>271</ele>
        <time>2018-10-04T13:56:37Z</time>
      </trkpt>
      <trkpt lat="46.98826" lon="5.76994">
        <ele>270</ele>
        <time>2018-10-04T13:56:42Z</time>
      </trkpt>
      <trkpt lat="46.9882" lon="5.7699">
        <ele>270</ele>
        <time>2018-10-04T13:56:47Z</time>
      </trkpt>
      <trkpt lat="46.98816" lon="5.76988">
        <ele>271</ele>
        <time>2018-10-04T13:56:51Z</time>
      </trkpt>
      <trkpt lat="46.98811" lon="5.76984">
        <ele>271</ele>
        <time>2018-10-04T13:56:55Z</time>
      </trkpt>
      <trkpt lat="46.98798" lon="5.76975">
        <ele>271</ele>
        <time>2018-10-04T13:57:07Z</time>
      </trkpt>
      <trkpt lat="46.9879" lon="5.76969">
        <ele>272</ele>
        <time>2018-10-04T13:57:15Z</time>
      </trkpt>
      <trkpt lat="46.98786" lon="5.76965">
        <ele>271</ele>
        <time>2018-10-04T13:57:19Z</time>
      </trkpt>
      <trkpt lat="46.98777" lon="5.76957">
        <ele>271</ele>
        <time>2018-10-04T13:57:28Z</time>
      </trkpt>
      <trkpt lat="46.98771" lon="5.76949">
        <ele>272</ele>
        <time>2018-10-04T13:57:37Z</time>
      </trkpt>
      <trkpt lat="46.98765" lon="5.76938">
        <ele>273</ele>
        <time>2018-10-04T13:57:48Z</time>
      </trkpt>
      <trkpt lat="46.98753" lon="5.7692">
        <ele>272</ele>
        <time>2018-10-04T13:58:06Z</time>
      </trkpt>
      <trkpt lat="46.98749" lon="5.76916">
        <ele>272</ele>
        <time>2018-10-04T13:58:11Z</time>
      </trkpt>
      <trkpt lat="46.98742" lon="5.76911">
        <ele>272</ele>
        <time>2018-10-04T13:58:19Z</time>
      </trkpt>
      <trkpt lat="46.98736" lon="5.76908">
        <ele>271</ele>
        <time>2018-10-04T13:58:27Z</time>
      </trkpt>
      <trkpt lat="46.98731" lon="5.76907">
        <ele>271</ele>
        <time>2018-10-04T13:58:33Z</time>
      </trkpt>
      <trkpt lat="46.98724" lon="5.76905">
        <ele>270</ele>
        <time>2018-10-04T13:58:45Z</time>
      </trkpt>
      <trkpt lat="46.98724" lon="5.76898">
        <ele>269</ele>
        <time>2018-10-04T13:58:53Z</time>
      </trkpt>
      <trkpt lat="46.98719" lon="5.769">
        <ele>269</ele>
        <time>2018-10-04T13:58:59Z</time>
      </trkpt>
      <trkpt lat="46.98716" lon="5.76893">
        <ele>270</ele>
        <time>2018-10-04T13:59:22Z</time>
      </trkpt>
      <trkpt lat="46.98715" lon="5.76885">
        <ele>268</ele>
        <time>2018-10-04T13:59:30Z</time>
      </trkpt>
      <trkpt lat="46.98708" lon="5.76876">
        <ele>269</ele>
        <time>2018-10-04T13:59:40Z</time>
      </trkpt>
      <trkpt lat="46.98704" lon="5.76872">
        <ele>269</ele>
        <time>2018-10-04T13:59:44Z</time>
      </trkpt>
      <trkpt lat="46.98691" lon="5.76868">
        <ele>269</ele>
        <time>2018-10-04T13:59:54Z</time>
      </trkpt>
      <trkpt lat="46.98687" lon="5.76862">
        <ele>270</ele>
        <time>2018-10-04T13:59:59Z</time>
      </trkpt>
      <trkpt lat="46.98682" lon="5.76861">
        <ele>270</ele>
        <time>2018-10-04T14:00:08Z</time>
      </trkpt>
      <trkpt lat="46.98677" lon="5.76859">
        <ele>271</ele>
        <time>2018-10-04T14:00:13Z</time>
      </trkpt>
      <trkpt lat="46.98672" lon="5.76859">
        <ele>271</ele>
        <time>2018-10-04T14:00:17Z</time>
      </trkpt>
      <trkpt lat="46.98666" lon="5.76861">
        <ele>271</ele>
        <time>2018-10-04T14:00:22Z</time>
      </trkpt>
      <trkpt lat="46.98662" lon="5.76862">
        <ele>271</ele>
        <time>2018-10-04T14:00:26Z</time>
      </trkpt>
      <trkpt lat="46.98658" lon="5.76861">
        <ele>271</ele>
        <time>2018-10-04T14:00:31Z</time>
      </trkpt>
      <trkpt lat="46.98652" lon="5.76862">
        <ele>271</ele>
        <time>2018-10-04T14:00:36Z</time>
      </trkpt>
      <trkpt lat="46.98635" lon="5.76866">
        <ele>271</ele>
        <time>2018-10-04T14:00:49Z</time>
      </trkpt>
      <trkpt lat="46.98625" lon="5.76865">
        <ele>271</ele>
        <time>2018-10-04T14:00:57Z</time>
      </trkpt>
      <trkpt lat="46.98617" lon="5.76867">
        <ele>271</ele>
        <time>2018-10-04T14:01:08Z</time>
      </trkpt>
      <trkpt lat="46.98612" lon="5.76867">
        <ele>271</ele>
        <time>2018-10-04T14:01:13Z</time>
      </trkpt>
      <trkpt lat="46.98607" lon="5.76868">
        <ele>270</ele>
        <time>2018-10-04T14:01:18Z</time>
      </trkpt>
      <trkpt lat="46.98602" lon="5.76869">
        <ele>269</ele>
        <time>2018-10-04T14:01:23Z</time>
      </trkpt>
      <trkpt lat="46.98597" lon="5.76872">
        <ele>270</ele>
        <time>2018-10-04T14:01:28Z</time>
      </trkpt>
      <trkpt lat="46.9859" lon="5.76877">
        <ele>270</ele>
        <time>2018-10-04T14:01:37Z</time>
      </trkpt>
      <trkpt lat="46.98584" lon="5.76879">
        <ele>271</ele>
        <time>2018-10-04T14:01:41Z</time>
      </trkpt>
      <trkpt lat="46.9858" lon="5.76879">
        <ele>270</ele>
        <time>2018-10-04T14:01:45Z</time>
      </trkpt>
      <trkpt lat="46.98571" lon="5.76883">
        <ele>271</ele>
        <time>2018-10-04T14:01:53Z</time>
      </trkpt>
      <trkpt lat="46.98565" lon="5.76883">
        <ele>272</ele>
        <time>2018-10-04T14:01:57Z</time>
      </trkpt>
      <trkpt lat="46.98561" lon="5.76886">
        <ele>271</ele>
        <time>2018-10-04T14:02:02Z</time>
      </trkpt>
      <trkpt lat="46.9855" lon="5.76892">
        <ele>271</ele>
        <time>2018-10-04T14:02:13Z</time>
      </trkpt>
      <trkpt lat="46.98546" lon="5.76897">
        <ele>271</ele>
        <time>2018-10-04T14:02:16Z</time>
      </trkpt>
      <trkpt lat="46.98543" lon="5.76904">
        <ele>271</ele>
        <time>2018-10-04T14:02:20Z</time>
      </trkpt>
      <trkpt lat="46.9854" lon="5.76908">
        <ele>271</ele>
        <time>2018-10-04T14:02:24Z</time>
      </trkpt>
      <trkpt lat="46.98535" lon="5.76911">
        <ele>270</ele>
        <time>2018-10-04T14:02:29Z</time>
      </trkpt>
      <trkpt lat="46.9853" lon="5.76913">
        <ele>270</ele>
        <time>2018-10-04T14:02:34Z</time>
      </trkpt>
      <trkpt lat="46.9852" lon="5.76917">
        <ele>273</ele>
        <time>2018-10-04T14:02:43Z</time>
      </trkpt>
      <trkpt lat="46.98514" lon="5.76924">
        <ele>274</ele>
        <time>2018-10-04T14:02:52Z</time>
      </trkpt>
      <trkpt lat="46.98508" lon="5.76927">
        <ele>274</ele>
        <time>2018-10-04T14:02:58Z</time>
      </trkpt>
      <trkpt lat="46.98504" lon="5.76934">
        <ele>274</ele>
        <time>2018-10-04T14:03:04Z</time>
      </trkpt>
      <trkpt lat="46.98495" lon="5.76938">
        <ele>274</ele>
        <time>2018-10-04T14:03:10Z</time>
      </trkpt>
      <trkpt lat="46.98485" lon="5.76944">
        <ele>276</ele>
        <time>2018-10-04T14:03:19Z</time>
      </trkpt>
      <trkpt lat="46.98481" lon="5.76948">
        <ele>276</ele>
        <time>2018-10-04T14:03:23Z</time>
      </trkpt>
      <trkpt lat="46.98469" lon="5.76962">
        <ele>276</ele>
        <time>2018-10-04T14:03:36Z</time>
      </trkpt>
      <trkpt lat="46.98465" lon="5.76967">
        <ele>275</ele>
        <time>2018-10-04T14:03:40Z</time>
      </trkpt>
      <trkpt lat="46.9845" lon="5.76977">
        <ele>277</ele>
        <time>2018-10-04T14:03:52Z</time>
      </trkpt>
      <trkpt lat="46.98445" lon="5.76979">
        <ele>277</ele>
        <time>2018-10-04T14:03:57Z</time>
      </trkpt>
      <trkpt lat="46.9844" lon="5.76981">
        <ele>277</ele>
        <time>2018-10-04T14:04:02Z</time>
      </trkpt>
      <trkpt lat="46.98435" lon="5.76984">
        <ele>279</ele>
        <time>2018-10-04T14:04:06Z</time>
      </trkpt>
      <trkpt lat="46.9843" lon="5.76987">
        <ele>279</ele>
        <time>2018-10-04T14:04:11Z</time>
      </trkpt>
      <trkpt lat="46.98417" lon="5.76996">
        <ele>277</ele>
        <time>2018-10-04T14:04:26Z</time>
      </trkpt>
      <trkpt lat="46.98406" lon="5.76999">
        <ele>277</ele>
        <time>2018-10-04T14:04:35Z</time>
      </trkpt>
      <trkpt lat="46.98402" lon="5.77002">
        <ele>277</ele>
        <time>2018-10-04T14:04:38Z</time>
      </trkpt>
      <trkpt lat="46.98398" lon="5.77005">
        <ele>277</ele>
        <time>2018-10-04T14:04:42Z</time>
      </trkpt>
      <trkpt lat="46.98392" lon="5.7701">
        <ele>277</ele>
        <time>2018-10-04T14:04:49Z</time>
      </trkpt>
      <trkpt lat="46.98388" lon="5.77014">
        <ele>277</ele>
        <time>2018-10-04T14:04:54Z</time>
      </trkpt>
      <trkpt lat="46.98384" lon="5.77016">
        <ele>278</ele>
        <time>2018-10-04T14:04:58Z</time>
      </trkpt>
      <trkpt lat="46.9837" lon="5.77027">
        <ele>277</ele>
        <time>2018-10-04T14:05:11Z</time>
      </trkpt>
      <trkpt lat="46.98365" lon="5.7703">
        <ele>278</ele>
        <time>2018-10-04T14:05:19Z</time>
      </trkpt>
      <trkpt lat="46.9836" lon="5.77032">
        <ele>278</ele>
        <time>2018-10-04T14:05:24Z</time>
      </trkpt>
      <trkpt lat="46.98352" lon="5.77035">
        <ele>277</ele>
        <time>2018-10-04T14:05:31Z</time>
      </trkpt>
      <trkpt lat="46.98347" lon="5.77038">
        <ele>277</ele>
        <time>2018-10-04T14:05:35Z</time>
      </trkpt>
      <trkpt lat="46.98342" lon="5.77039">
        <ele>277</ele>
        <time>2018-10-04T14:05:40Z</time>
      </trkpt>
      <trkpt lat="46.98332" lon="5.77043">
        <ele>277</ele>
        <time>2018-10-04T14:05:48Z</time>
      </trkpt>
      <trkpt lat="46.98326" lon="5.77047">
        <ele>278</ele>
        <time>2018-10-04T14:05:58Z</time>
      </trkpt>
      <trkpt lat="46.98321" lon="5.77049">
        <ele>277</ele>
        <time>2018-10-04T14:06:04Z</time>
      </trkpt>
      <trkpt lat="46.98304" lon="5.7705">
        <ele>277</ele>
        <time>2018-10-04T14:06:15Z</time>
      </trkpt>
      <trkpt lat="46.98294" lon="5.77054">
        <ele>277</ele>
        <time>2018-10-04T14:06:23Z</time>
      </trkpt>
      <trkpt lat="46.98288" lon="5.77054">
        <ele>278</ele>
        <time>2018-10-04T14:06:26Z</time>
      </trkpt>
      <trkpt lat="46.98279" lon="5.77059">
        <ele>279</ele>
        <time>2018-10-04T14:06:34Z</time>
      </trkpt>
      <trkpt lat="46.98275" lon="5.77061">
        <ele>278</ele>
        <time>2018-10-04T14:06:38Z</time>
      </trkpt>
      <trkpt lat="46.9827" lon="5.77061">
        <ele>278</ele>
        <time>2018-10-04T14:06:43Z</time>
      </trkpt>
      <trkpt lat="46.98264" lon="5.77064">
        <ele>277</ele>
        <time>2018-10-04T14:06:48Z</time>
      </trkpt>
      <trkpt lat="46.98259" lon="5.77066">
        <ele>277</ele>
        <time>2018-10-04T14:06:52Z</time>
      </trkpt>
      <trkpt lat="46.98254" lon="5.77066">
        <ele>277</ele>
        <time>2018-10-04T14:06:55Z</time>
      </trkpt>
      <trkpt lat="46.98249" lon="5.77068">
        <ele>277</ele>
        <time>2018-10-04T14:06:59Z</time>
      </trkpt>
      <trkpt lat="46.98244" lon="5.77071">
        <ele>277</ele>
        <time>2018-10-04T14:07:04Z</time>
      </trkpt>
      <trkpt lat="46.9823" lon="5.77078">
        <ele>277</ele>
        <time>2018-10-04T14:07:15Z</time>
      </trkpt>
      <trkpt lat="46.98224" lon="5.77081">
        <ele>276</ele>
        <time>2018-10-04T14:07:22Z</time>
      </trkpt>
      <trkpt lat="46.98215" lon="5.77088">
        <ele>276</ele>
        <time>2018-10-04T14:07:30Z</time>
      </trkpt>
      <trkpt lat="46.98201" lon="5.77101">
        <ele>274</ele>
        <time>2018-10-04T14:07:39Z</time>
      </trkpt>
      <trkpt lat="46.98192" lon="5.77108">
        <ele>274</ele>
        <time>2018-10-04T14:07:45Z</time>
      </trkpt>
      <trkpt lat="46.98187" lon="5.77111">
        <ele>275</ele>
        <time>2018-10-04T14:07:49Z</time>
      </trkpt>
      <trkpt lat="46.98183" lon="5.77112">
        <ele>274</ele>
        <time>2018-10-04T14:07:53Z</time>
      </trkpt>
      <trkpt lat="46.98178" lon="5.77114">
        <ele>274</ele>
        <time>2018-10-04T14:07:57Z</time>
      </trkpt>
      <trkpt lat="46.9817" lon="5.77121">
        <ele>274</ele>
        <time>2018-10-04T14:08:05Z</time>
      </trkpt>
      <trkpt lat="46.98149" lon="5.77132">
        <ele>273</ele>
        <time>2018-10-04T14:08:24Z</time>
      </trkpt>
      <trkpt lat="46.98143" lon="5.77127">
        <ele>273</ele>
        <time>2018-10-04T14:08:31Z</time>
      </trkpt>
      <trkpt lat="46.98129" lon="5.77124">
        <ele>272</ele>
        <time>2018-10-04T14:08:44Z</time>
      </trkpt>
      <trkpt lat="46.98124" lon="5.77123">
        <ele>272</ele>
        <time>2018-10-04T14:08:49Z</time>
      </trkpt>
      <trkpt lat="46.98118" lon="5.77128">
        <ele>271</ele>
        <time>2018-10-04T14:08:55Z</time>
      </trkpt>
      <trkpt lat="46.98108" lon="5.77131">
        <ele>270</ele>
        <time>2018-10-04T14:09:02Z</time>
      </trkpt>
      <trkpt lat="46.98103" lon="5.77134">
        <ele>271</ele>
        <time>2018-10-04T14:09:07Z</time>
      </trkpt>
      <trkpt lat="46.98099" lon="5.77137">
        <ele>272</ele>
        <time>2018-10-04T14:09:12Z</time>
      </trkpt>
      <trkpt lat="46.98095" lon="5.77141">
        <ele>272</ele>
        <time>2018-10-04T14:09:16Z</time>
      </trkpt>
      <trkpt lat="46.98077" lon="5.77156">
        <ele>272</ele>
        <time>2018-10-04T14:09:32Z</time>
      </trkpt>
      <trkpt lat="46.98068" lon="5.77163">
        <ele>270</ele>
        <time>2018-10-04T14:09:40Z</time>
      </trkpt>
      <trkpt lat="46.98065" lon="5.77168">
        <ele>270</ele>
        <time>2018-10-04T14:09:44Z</time>
      </trkpt>
      <trkpt lat="46.98061" lon="5.77174">
        <ele>270</ele>
        <time>2018-10-04T14:09:48Z</time>
      </trkpt>
      <trkpt lat="46.98057" lon="5.77179">
        <ele>269</ele>
        <time>2018-10-04T14:09:52Z</time>
      </trkpt>
      <trkpt lat="46.98052" lon="5.77184">
        <ele>269</ele>
        <time>2018-10-04T14:09:56Z</time>
      </trkpt>
      <trkpt lat="46.98043" lon="5.77188">
        <ele>270</ele>
        <time>2018-10-04T14:10:03Z</time>
      </trkpt>
      <trkpt lat="46.98039" lon="5.77183">
        <ele>270</ele>
        <time>2018-10-04T14:10:08Z</time>
      </trkpt>
      <trkpt lat="46.98037" lon="5.77176">
        <ele>270</ele>
        <time>2018-10-04T14:10:13Z</time>
      </trkpt>
      <trkpt lat="46.98036" lon="5.77169">
        <ele>270</ele>
        <time>2018-10-04T14:10:17Z</time>
      </trkpt>
      <trkpt lat="46.98036" lon="5.77162">
        <ele>270</ele>
        <time>2018-10-04T14:10:22Z</time>
      </trkpt>
      <trkpt lat="46.98035" lon="5.77155">
        <ele>270</ele>
        <time>2018-10-04T14:10:26Z</time>
      </trkpt>
      <trkpt lat="46.98035" lon="5.77148">
        <ele>269</ele>
        <time>2018-10-04T14:10:30Z</time>
      </trkpt>
      <trkpt lat="46.98037" lon="5.77136">
        <ele>269</ele>
        <time>2018-10-04T14:10:39Z</time>
      </trkpt>
      <trkpt lat="46.98038" lon="5.7712">
        <ele>268</ele>
        <time>2018-10-04T14:10:49Z</time>
      </trkpt>
      <trkpt lat="46.9804" lon="5.77106">
        <ele>268</ele>
        <time>2018-10-04T14:10:57Z</time>
      </trkpt>
      <trkpt lat="46.98041" lon="5.77098">
        <ele>269</ele>
        <time>2018-10-04T14:11:02Z</time>
      </trkpt>
      <trkpt lat="46.98041" lon="5.77091">
        <ele>269</ele>
        <time>2018-10-04T14:11:07Z</time>
      </trkpt>
      <trkpt lat="46.98043" lon="5.77083">
        <ele>269</ele>
        <time>2018-10-04T14:11:13Z</time>
      </trkpt>
      <trkpt lat="46.98042" lon="5.77076">
        <ele>268</ele>
        <time>2018-10-04T14:11:17Z</time>
      </trkpt>
      <trkpt lat="46.9804" lon="5.77069">
        <ele>268</ele>
        <time>2018-10-04T14:11:22Z</time>
      </trkpt>
      <trkpt lat="46.98039" lon="5.77062">
        <ele>269</ele>
        <time>2018-10-04T14:11:26Z</time>
      </trkpt>
      <trkpt lat="46.98037" lon="5.77048">
        <ele>268</ele>
        <time>2018-10-04T14:11:33Z</time>
      </trkpt>
      <trkpt lat="46.98038" lon="5.77041">
        <ele>268</ele>
        <time>2018-10-04T14:11:37Z</time>
      </trkpt>
      <trkpt lat="46.98033" lon="5.77025">
        <ele>267</ele>
        <time>2018-10-04T14:11:46Z</time>
      </trkpt>
      <trkpt lat="46.98028" lon="5.77013">
        <ele>267</ele>
        <time>2018-10-04T14:11:53Z</time>
      </trkpt>
      <trkpt lat="46.98029" lon="5.77004">
        <ele>267</ele>
        <time>2018-10-04T14:11:57Z</time>
      </trkpt>
      <trkpt lat="46.98028" lon="5.76982">
        <ele>268</ele>
        <time>2018-10-04T14:12:09Z</time>
      </trkpt>
      <trkpt lat="46.98027" lon="5.76974">
        <ele>268</ele>
        <time>2018-10-04T14:12:13Z</time>
      </trkpt>
      <trkpt lat="46.98026" lon="5.76967">
        <ele>269</ele>
        <time>2018-10-04T14:12:17Z</time>
      </trkpt>
      <trkpt lat="46.98024" lon="5.76959">
        <ele>268</ele>
        <time>2018-10-04T14:12:21Z</time>
      </trkpt>
      <trkpt lat="46.98024" lon="5.76952">
        <ele>268</ele>
        <time>2018-10-04T14:12:25Z</time>
      </trkpt>
      <trkpt lat="46.98023" lon="5.76935">
        <ele>268</ele>
        <time>2018-10-04T14:12:33Z</time>
      </trkpt>
      <trkpt lat="46.98022" lon="5.76928">
        <ele>268</ele>
        <time>2018-10-04T14:12:37Z</time>
      </trkpt>
      <trkpt lat="46.98021" lon="5.76921">
        <ele>268</ele>
        <time>2018-10-04T14:12:40Z</time>
      </trkpt>
      <trkpt lat="46.98017" lon="5.769">
        <ele>269</ele>
        <time>2018-10-04T14:12:54Z</time>
      </trkpt>
      <trkpt lat="46.98016" lon="5.76893">
        <ele>268</ele>
        <time>2018-10-04T14:12:58Z</time>
      </trkpt>
      <trkpt lat="46.98012" lon="5.76879">
        <ele>268</ele>
        <time>2018-10-04T14:13:04Z</time>
      </trkpt>
      <trkpt lat="46.98009" lon="5.76873">
        <ele>268</ele>
        <time>2018-10-04T14:13:07Z</time>
      </trkpt>
      <trkpt lat="46.98006" lon="5.76868">
        <ele>268</ele>
        <time>2018-10-04T14:13:10Z</time>
      </trkpt>
      <trkpt lat="46.98004" lon="5.76861">
        <ele>269</ele>
        <time>2018-10-04T14:13:14Z</time>
      </trkpt>
      <trkpt lat="46.98003" lon="5.76853">
        <ele>269</ele>
        <time>2018-10-04T14:13:19Z</time>
      </trkpt>
      <trkpt lat="46.98" lon="5.7684">
        <ele>269</ele>
        <time>2018-10-04T14:13:26Z</time>
      </trkpt>
      <trkpt lat="46.97998" lon="5.76834">
        <ele>270</ele>
        <time>2018-10-04T14:13:30Z</time>
      </trkpt>
      <trkpt lat="46.97999" lon="5.76826">
        <ele>270</ele>
        <time>2018-10-04T14:13:35Z</time>
      </trkpt>
      <trkpt lat="46.97997" lon="5.76819">
        <ele>269</ele>
        <time>2018-10-04T14:13:39Z</time>
      </trkpt>
      <trkpt lat="46.97995" lon="5.76813">
        <ele>269</ele>
        <time>2018-10-04T14:13:43Z</time>
      </trkpt>
      <trkpt lat="46.97991" lon="5.76808">
        <ele>269</ele>
        <time>2018-10-04T14:13:47Z</time>
      </trkpt>
      <trkpt lat="46.97986" lon="5.76804">
        <ele>269</ele>
        <time>2018-10-04T14:13:52Z</time>
      </trkpt>
      <trkpt lat="46.97966" lon="5.76798">
        <ele>268</ele>
        <time>2018-10-04T14:14:07Z</time>
      </trkpt>
      <trkpt lat="46.97961" lon="5.76793">
        <ele>267</ele>
        <time>2018-10-04T14:14:12Z</time>
      </trkpt>
      <trkpt lat="46.97957" lon="5.76788">
        <ele>267</ele>
        <time>2018-10-04T14:14:16Z</time>
      </trkpt>
      <trkpt lat="46.97953" lon="5.76784">
        <ele>267</ele>
        <time>2018-10-04T14:14:19Z</time>
      </trkpt>
      <trkpt lat="46.97948" lon="5.76779">
        <ele>268</ele>
        <time>2018-10-04T14:14:24Z</time>
      </trkpt>
      <trkpt lat="46.97943" lon="5.76776">
        <ele>267</ele>
        <time>2018-10-04T14:14:28Z</time>
      </trkpt>
      <trkpt lat="46.97937" lon="5.76773">
        <ele>267</ele>
        <time>2018-10-04T14:14:35Z</time>
      </trkpt>
      <trkpt lat="46.97932" lon="5.7677">
        <ele>267</ele>
        <time>2018-10-04T14:14:40Z</time>
      </trkpt>
      <trkpt lat="46.97925" lon="5.76769">
        <ele>266</ele>
        <time>2018-10-04T14:14:46Z</time>
      </trkpt>
      <trkpt lat="46.97905" lon="5.76762">
        <ele>267</ele>
        <time>2018-10-04T14:15:01Z</time>
      </trkpt>
      <trkpt lat="46.97899" lon="5.76762">
        <ele>267</ele>
        <time>2018-10-04T14:15:05Z</time>
      </trkpt>
      <trkpt lat="46.9789" lon="5.76757">
        <ele>266</ele>
        <time>2018-10-04T14:15:13Z</time>
      </trkpt>
      <trkpt lat="46.97884" lon="5.76755">
        <ele>266</ele>
        <time>2018-10-04T14:15:17Z</time>
      </trkpt>
      <trkpt lat="46.9788" lon="5.76752">
        <ele>266</ele>
        <time>2018-10-04T14:15:21Z</time>
      </trkpt>
      <trkpt lat="46.97875" lon="5.7675">
        <ele>266</ele>
        <time>2018-10-04T14:15:26Z</time>
      </trkpt>
      <trkpt lat="46.9787" lon="5.76748">
        <ele>266</ele>
        <time>2018-10-04T14:15:31Z</time>
      </trkpt>
      <trkpt lat="46.97854" lon="5.76742">
        <ele>266</ele>
        <time>2018-10-04T14:15:43Z</time>
      </trkpt>
      <trkpt lat="46.97844" lon="5.76741">
        <ele>267</ele>
        <time>2018-10-04T14:15:50Z</time>
      </trkpt>
      <trkpt lat="46.97839" lon="5.7674">
        <ele>267</ele>
        <time>2018-10-04T14:15:53Z</time>
      </trkpt>
      <trkpt lat="46.97818" lon="5.7674">
        <ele>270</ele>
        <time>2018-10-04T14:16:07Z</time>
      </trkpt>
      <trkpt lat="46.97813" lon="5.76742">
        <ele>270</ele>
        <time>2018-10-04T14:16:12Z</time>
      </trkpt>
      <trkpt lat="46.97809" lon="5.76744">
        <ele>270</ele>
        <time>2018-10-04T14:16:17Z</time>
      </trkpt>
      <trkpt lat="46.97803" lon="5.76745">
        <ele>271</ele>
        <time>2018-10-04T14:16:21Z</time>
      </trkpt>
      <trkpt lat="46.97795" lon="5.76752">
        <ele>275</ele>
        <time>2018-10-04T14:16:31Z</time>
      </trkpt>
      <trkpt lat="46.97774" lon="5.76755">
        <ele>277</ele>
        <time>2018-10-04T14:16:49Z</time>
      </trkpt>
      <trkpt lat="46.97764" lon="5.76758">
        <ele>278</ele>
        <time>2018-10-04T14:16:57Z</time>
      </trkpt>
      <trkpt lat="46.97754" lon="5.76763">
        <ele>277</ele>
        <time>2018-10-04T14:17:06Z</time>
      </trkpt>
      <trkpt lat="46.97749" lon="5.76764">
        <ele>278</ele>
        <time>2018-10-04T14:17:10Z</time>
      </trkpt>
      <trkpt lat="46.97744" lon="5.76766">
        <ele>278</ele>
        <time>2018-10-04T14:17:13Z</time>
      </trkpt>
      <trkpt lat="46.97739" lon="5.76767">
        <ele>278</ele>
        <time>2018-10-04T14:17:17Z</time>
      </trkpt>
      <trkpt lat="46.97734" lon="5.76767">
        <ele>278</ele>
        <time>2018-10-04T14:17:21Z</time>
      </trkpt>
      <trkpt lat="46.97728" lon="5.76767">
        <ele>278</ele>
        <time>2018-10-04T14:17:25Z</time>
      </trkpt>
      <trkpt lat="46.97714" lon="5.76777">
        <ele>277</ele>
        <time>2018-10-04T14:17:36Z</time>
      </trkpt>
      <trkpt lat="46.97709" lon="5.76779">
        <ele>277</ele>
        <time>2018-10-04T14:17:40Z</time>
      </trkpt>
      <trkpt lat="46.97702" lon="5.76778">
        <ele>276</ele>
        <time>2018-10-04T14:17:49Z</time>
      </trkpt>
      <trkpt lat="46.97685" lon="5.76784">
        <ele>275</ele>
        <time>2018-10-04T14:18:03Z</time>
      </trkpt>
      <trkpt lat="46.9768" lon="5.76787">
        <ele>274</ele>
        <time>2018-10-04T14:18:07Z</time>
      </trkpt>
      <trkpt lat="46.97675" lon="5.76793">
        <ele>272</ele>
        <time>2018-10-04T14:18:10Z</time>
      </trkpt>
      <trkpt lat="46.97666" lon="5.76797">
        <ele>270</ele>
        <time>2018-10-04T14:18:17Z</time>
      </trkpt>
      <trkpt lat="46.97662" lon="5.76801">
        <ele>269</ele>
        <time>2018-10-04T14:18:21Z</time>
      </trkpt>
      <trkpt lat="46.97657" lon="5.76804">
        <ele>269</ele>
        <time>2018-10-04T14:18:26Z</time>
      </trkpt>
      <trkpt lat="46.97646" lon="5.76804">
        <ele>266</ele>
        <time>2018-10-04T14:18:34Z</time>
      </trkpt>
      <trkpt lat="46.97641" lon="5.76803">
        <ele>266</ele>
        <time>2018-10-04T14:18:37Z</time>
      </trkpt>
      <trkpt lat="46.97636" lon="5.76808">
        <ele>265</ele>
        <time>2018-10-04T14:18:41Z</time>
      </trkpt>
      <trkpt lat="46.97631" lon="5.76807">
        <ele>266</ele>
        <time>2018-10-04T14:18:46Z</time>
      </trkpt>
      <trkpt lat="46.97632" lon="5.76795">
        <ele>267</ele>
        <time>2018-10-04T14:18:58Z</time>
      </trkpt>
      <trkpt lat="46.97633" lon="5.76788">
        <ele>267</ele>
        <time>2018-10-04T14:19:03Z</time>
      </trkpt>
      <trkpt lat="46.97632" lon="5.76781">
        <ele>268</ele>
        <time>2018-10-04T14:19:08Z</time>
      </trkpt>
      <trkpt lat="46.97628" lon="5.76773">
        <ele>268</ele>
        <time>2018-10-04T14:19:15Z</time>
      </trkpt>
      <trkpt lat="46.97627" lon="5.76766">
        <ele>269</ele>
        <time>2018-10-04T14:19:20Z</time>
      </trkpt>
      <trkpt lat="46.97626" lon="5.76759">
        <ele>269</ele>
        <time>2018-10-04T14:19:24Z</time>
      </trkpt>
      <trkpt lat="46.97622" lon="5.76727">
        <ele>271</ele>
        <time>2018-10-04T14:19:43Z</time>
      </trkpt>
      <trkpt lat="46.97623" lon="5.7672">
        <ele>270</ele>
        <time>2018-10-04T14:19:47Z</time>
      </trkpt>
      <trkpt lat="46.97621" lon="5.76712">
        <ele>270</ele>
        <time>2018-10-04T14:19:51Z</time>
      </trkpt>
      <trkpt lat="46.97616" lon="5.76697">
        <ele>268</ele>
        <time>2018-10-04T14:20:01Z</time>
      </trkpt>
      <trkpt lat="46.97616" lon="5.76682">
        <ele>268</ele>
        <time>2018-10-04T14:20:10Z</time>
      </trkpt>
      <trkpt lat="46.97616" lon="5.76672">
        <ele>269</ele>
        <time>2018-10-04T14:20:17Z</time>
      </trkpt>
      <trkpt lat="46.97615" lon="5.76664">
        <ele>268</ele>
        <time>2018-10-04T14:20:22Z</time>
      </trkpt>
      <trkpt lat="46.97613" lon="5.76659">
        <ele>268</ele>
        <time>2018-10-04T14:20:26Z</time>
      </trkpt>
      <trkpt lat="46.97613" lon="5.7665">
        <ele>267</ele>
        <time>2018-10-04T14:20:30Z</time>
      </trkpt>
      <trkpt lat="46.97611" lon="5.76643">
        <ele>267</ele>
        <time>2018-10-04T14:20:34Z</time>
      </trkpt>
      <trkpt lat="46.97612" lon="5.76636">
        <ele>268</ele>
        <time>2018-10-04T14:20:38Z</time>
      </trkpt>
      <trkpt lat="46.97612" lon="5.7662">
        <ele>269</ele>
        <time>2018-10-04T14:20:46Z</time>
      </trkpt>
      <trkpt lat="46.9761" lon="5.76613">
        <ele>269</ele>
        <time>2018-10-04T14:20:49Z</time>
      </trkpt>
      <trkpt lat="46.97607" lon="5.76606">
        <ele>269</ele>
        <time>2018-10-04T14:20:54Z</time>
      </trkpt>
      <trkpt lat="46.97606" lon="5.76599">
        <ele>269</ele>
        <time>2018-10-04T14:20:58Z</time>
      </trkpt>
      <trkpt lat="46.97605" lon="5.76585">
        <ele>270</ele>
        <time>2018-10-04T14:21:08Z</time>
      </trkpt>
      <trkpt lat="46.97604" lon="5.76571">
        <ele>270</ele>
        <time>2018-10-04T14:21:18Z</time>
      </trkpt>
      <trkpt lat="46.97607" lon="5.76557">
        <ele>270</ele>
        <time>2018-10-04T14:21:31Z</time>
      </trkpt>
      <trkpt lat="46.97602" lon="5.76554">
        <ele>270</ele>
        <time>2018-10-04T14:21:37Z</time>
      </trkpt>
      <trkpt lat="46.97597" lon="5.76552">
        <ele>270</ele>
        <time>2018-10-04T14:21:42Z</time>
      </trkpt>
      <trkpt lat="46.97594" lon="5.76547">
        <ele>271</ele>
        <time>2018-10-04T14:21:56Z</time>
      </trkpt>
      <trkpt lat="46.97585" lon="5.7655">
        <ele>274</ele>
        <time>2018-10-04T14:25:15Z</time>
      </trkpt>
      <trkpt lat="46.97575" lon="5.76549">
        <ele>273</ele>
        <time>2018-10-04T14:25:57Z</time>
      </trkpt>
      <trkpt lat="46.97578" lon="5.76555">
        <ele>270</ele>
        <time>2018-10-04T14:26:51Z</time>
      </trkpt>
      <trkpt lat="46.97579" lon="5.76563">
        <ele>270</ele>
        <time>2018-10-04T14:32:34Z</time>
      </trkpt>
      <trkpt lat="46.97583" lon="5.76557">
        <ele>271</ele>
        <time>2018-10-04T14:32:53Z</time>
      </trkpt>
      <trkpt lat="46.97588" lon="5.7655">
        <ele>267</ele>
        <time>2018-10-04T14:33:12Z</time>
      </trkpt>
      <trkpt lat="46.97594" lon="5.76544">
        <ele>267</ele>
        <time>2018-10-04T14:33:19Z</time>
      </trkpt>
      <trkpt lat="46.97599" lon="5.76543">
        <ele>266</ele>
        <time>2018-10-04T14:34:26Z</time>
      </trkpt>
      <trkpt lat="46.97604" lon="5.76539">
        <ele>267</ele>
        <time>2018-10-04T14:35:44Z</time>
      </trkpt>
      <trkpt lat="46.97597" lon="5.76536">
        <ele>272</ele>
        <time>2018-10-04T14:36:06Z</time>
      </trkpt>
      <trkpt lat="46.97593" lon="5.76538">
        <ele>271</ele>
        <time>2018-10-04T14:36:11Z</time>
      </trkpt>
      <trkpt lat="46.97596" lon="5.76548">
        <ele>270</ele>
        <time>2018-10-04T14:36:30Z</time>
      </trkpt>
      <trkpt lat="46.976" lon="5.7654">
        <ele>271</ele>
        <time>2018-10-04T14:37:19Z</time>
      </trkpt>
      <trkpt lat="46.97601" lon="5.76533">
        <ele>272</ele>
        <time>2018-10-04T14:37:31Z</time>
      </trkpt>
      <trkpt lat="46.976" lon="5.76522">
        <ele>271</ele>
        <time>2018-10-04T14:37:44Z</time>
      </trkpt>
      <trkpt lat="46.97597" lon="5.76516">
        <ele>271</ele>
        <time>2018-10-04T14:37:48Z</time>
      </trkpt>
      <trkpt lat="46.97596" lon="5.76509">
        <ele>271</ele>
        <time>2018-10-04T14:37:53Z</time>
      </trkpt>
      <trkpt lat="46.97592" lon="5.76495">
        <ele>270</ele>
        <time>2018-10-04T14:37:59Z</time>
      </trkpt>
      <trkpt lat="46.97589" lon="5.76481">
        <ele>270</ele>
        <time>2018-10-04T14:38:06Z</time>
      </trkpt>
      <trkpt lat="46.97587" lon="5.76452">
        <ele>272</ele>
        <time>2018-10-04T14:38:22Z</time>
      </trkpt>
      <trkpt lat="46.9759" lon="5.76439">
        <ele>272</ele>
        <time>2018-10-04T14:38:30Z</time>
      </trkpt>
      <trkpt lat="46.97589" lon="5.7643">
        <ele>272</ele>
        <time>2018-10-04T14:38:35Z</time>
      </trkpt>
      <trkpt lat="46.97588" lon="5.7642">
        <ele>275</ele>
        <time>2018-10-04T14:38:42Z</time>
      </trkpt>
      <trkpt lat="46.97585" lon="5.76415">
        <ele>276</ele>
        <time>2018-10-04T14:38:45Z</time>
      </trkpt>
      <trkpt lat="46.97582" lon="5.76408">
        <ele>276</ele>
        <time>2018-10-04T14:38:49Z</time>
      </trkpt>
      <trkpt lat="46.9758" lon="5.76395">
        <ele>274</ele>
        <time>2018-10-04T14:38:56Z</time>
      </trkpt>
      <trkpt lat="46.97574" lon="5.76374">
        <ele>274</ele>
        <time>2018-10-04T14:39:09Z</time>
      </trkpt>
      <trkpt lat="46.97573" lon="5.76368">
        <ele>273</ele>
        <time>2018-10-04T14:39:13Z</time>
      </trkpt>
      <trkpt lat="46.9757" lon="5.76361">
        <ele>273</ele>
        <time>2018-10-04T14:39:17Z</time>
      </trkpt>
      <trkpt lat="46.97567" lon="5.76347">
        <ele>274</ele>
        <time>2018-10-04T14:39:26Z</time>
      </trkpt>
      <trkpt lat="46.97562" lon="5.76326">
        <ele>274</ele>
        <time>2018-10-04T14:39:38Z</time>
      </trkpt>
      <trkpt lat="46.97562" lon="5.7632">
        <ele>274</ele>
        <time>2018-10-04T14:39:42Z</time>
      </trkpt>
      <trkpt lat="46.97563" lon="5.76312">
        <ele>274</ele>
        <time>2018-10-04T14:39:47Z</time>
      </trkpt>
      <trkpt lat="46.97564" lon="5.76304">
        <ele>274</ele>
        <time>2018-10-04T14:39:52Z</time>
      </trkpt>
      <trkpt lat="46.97572" lon="5.76292">
        <ele>275</ele>
        <time>2018-10-04T14:40:01Z</time>
      </trkpt>
      <trkpt lat="46.97579" lon="5.76288">
        <ele>275</ele>
        <time>2018-10-04T14:40:11Z</time>
      </trkpt>
      <trkpt lat="46.97585" lon="5.76286">
        <ele>275</ele>
        <time>2018-10-04T14:40:17Z</time>
      </trkpt>
      <trkpt lat="46.9759" lon="5.76284">
        <ele>274</ele>
        <time>2018-10-04T14:40:22Z</time>
      </trkpt>
      <trkpt lat="46.97604" lon="5.76277">
        <ele>274</ele>
        <time>2018-10-04T14:40:33Z</time>
      </trkpt>
      <trkpt lat="46.97609" lon="5.76273">
        <ele>275</ele>
        <time>2018-10-04T14:40:41Z</time>
      </trkpt>
      <trkpt lat="46.9762" lon="5.76273">
        <ele>276</ele>
        <time>2018-10-04T14:40:51Z</time>
      </trkpt>
      <trkpt lat="46.97628" lon="5.76267">
        <ele>277</ele>
        <time>2018-10-04T14:40:59Z</time>
      </trkpt>
      <trkpt lat="46.97649" lon="5.76261">
        <ele>279</ele>
        <time>2018-10-04T14:41:13Z</time>
      </trkpt>
      <trkpt lat="46.97659" lon="5.76258">
        <ele>279</ele>
        <time>2018-10-04T14:41:21Z</time>
      </trkpt>
      <trkpt lat="46.97687" lon="5.7626">
        <ele>281</ele>
        <time>2018-10-04T14:41:39Z</time>
      </trkpt>
      <trkpt lat="46.97693" lon="5.76259">
        <ele>281</ele>
        <time>2018-10-04T14:41:45Z</time>
      </trkpt>
      <trkpt lat="46.97699" lon="5.76257">
        <ele>281</ele>
        <time>2018-10-04T14:41:48Z</time>
      </trkpt>
      <trkpt lat="46.9771" lon="5.76255">
        <ele>281</ele>
        <time>2018-10-04T14:41:54Z</time>
      </trkpt>
      <trkpt lat="46.97714" lon="5.76252">
        <ele>281</ele>
        <time>2018-10-04T14:41:57Z</time>
      </trkpt>
      <trkpt lat="46.97718" lon="5.7625">
        <ele>281</ele>
        <time>2018-10-04T14:42:01Z</time>
      </trkpt>
      <trkpt lat="46.97724" lon="5.76249">
        <ele>280</ele>
        <time>2018-10-04T14:42:04Z</time>
      </trkpt>
      <trkpt lat="46.9773" lon="5.76247">
        <ele>280</ele>
        <time>2018-10-04T14:42:07Z</time>
      </trkpt>
      <trkpt lat="46.97735" lon="5.76245">
        <ele>280</ele>
        <time>2018-10-04T14:42:10Z</time>
      </trkpt>
      <trkpt lat="46.97751" lon="5.76239">
        <ele>278</ele>
        <time>2018-10-04T14:42:23Z</time>
      </trkpt>
      <trkpt lat="46.97756" lon="5.76238">
        <ele>279</ele>
        <time>2018-10-04T14:42:28Z</time>
      </trkpt>
      <trkpt lat="46.97768" lon="5.76234">
        <ele>278</ele>
        <time>2018-10-04T14:42:38Z</time>
      </trkpt>
      <trkpt lat="46.97773" lon="5.76233">
        <ele>278</ele>
        <time>2018-10-04T14:42:43Z</time>
      </trkpt>
      <trkpt lat="46.97788" lon="5.76227">
        <ele>278</ele>
        <time>2018-10-04T14:42:56Z</time>
      </trkpt>
      <trkpt lat="46.97797" lon="5.76222">
        <ele>278</ele>
        <time>2018-10-04T14:43:03Z</time>
      </trkpt>
      <trkpt lat="46.97802" lon="5.7622">
        <ele>278</ele>
        <time>2018-10-04T14:43:08Z</time>
      </trkpt>
      <trkpt lat="46.97816" lon="5.76216">
        <ele>276</ele>
        <time>2018-10-04T14:43:19Z</time>
      </trkpt>
      <trkpt lat="46.97821" lon="5.76214">
        <ele>277</ele>
        <time>2018-10-04T14:43:23Z</time>
      </trkpt>
      <trkpt lat="46.97826" lon="5.76211">
        <ele>277</ele>
        <time>2018-10-04T14:43:27Z</time>
      </trkpt>
      <trkpt lat="46.9783" lon="5.76208">
        <ele>277</ele>
        <time>2018-10-04T14:43:31Z</time>
      </trkpt>
      <trkpt lat="46.97835" lon="5.76207">
        <ele>276</ele>
        <time>2018-10-04T14:43:35Z</time>
      </trkpt>
      <trkpt lat="46.97849" lon="5.76201">
        <ele>276</ele>
        <time>2018-10-04T14:43:47Z</time>
      </trkpt>
      <trkpt lat="46.97859" lon="5.76198">
        <ele>275</ele>
        <time>2018-10-04T14:43:56Z</time>
      </trkpt>
      <trkpt lat="46.9787" lon="5.76193">
        <ele>272</ele>
        <time>2018-10-04T14:44:10Z</time>
      </trkpt>
      <trkpt lat="46.97874" lon="5.76191">
        <ele>272</ele>
        <time>2018-10-04T14:44:15Z</time>
      </trkpt>
      <trkpt lat="46.97886" lon="5.76187">
        <ele>271</ele>
        <time>2018-10-04T14:44:21Z</time>
      </trkpt>
      <trkpt lat="46.9789" lon="5.76186">
        <ele>270</ele>
        <time>2018-10-04T14:44:24Z</time>
      </trkpt>
      <trkpt lat="46.97895" lon="5.76183">
        <ele>269</ele>
        <time>2018-10-04T14:44:28Z</time>
      </trkpt>
      <trkpt lat="46.9793" lon="5.76176">
        <ele>268</ele>
        <time>2018-10-04T14:44:57Z</time>
      </trkpt>
      <trkpt lat="46.9794" lon="5.76176">
        <ele>268</ele>
        <time>2018-10-04T14:45:03Z</time>
      </trkpt>
      <trkpt lat="46.97945" lon="5.76174">
        <ele>268</ele>
        <time>2018-10-04T14:45:08Z</time>
      </trkpt>
      <trkpt lat="46.9795" lon="5.76172">
        <ele>268</ele>
        <time>2018-10-04T14:45:13Z</time>
      </trkpt>
      <trkpt lat="46.97959" lon="5.76166">
        <ele>268</ele>
        <time>2018-10-04T14:45:22Z</time>
      </trkpt>
      <trkpt lat="46.97965" lon="5.76165">
        <ele>268</ele>
        <time>2018-10-04T14:45:25Z</time>
      </trkpt>
      <trkpt lat="46.97989" lon="5.76157">
        <ele>265</ele>
        <time>2018-10-04T14:45:45Z</time>
      </trkpt>
      <trkpt lat="46.97995" lon="5.76155">
        <ele>266</ele>
        <time>2018-10-04T14:45:50Z</time>
      </trkpt>
      <trkpt lat="46.98009" lon="5.76152">
        <ele>264</ele>
        <time>2018-10-04T14:46:02Z</time>
      </trkpt>
      <trkpt lat="46.98016" lon="5.7615">
        <ele>265</ele>
        <time>2018-10-04T14:46:09Z</time>
      </trkpt>
      <trkpt lat="46.98026" lon="5.76147">
        <ele>263</ele>
        <time>2018-10-04T14:46:17Z</time>
      </trkpt>
      <trkpt lat="46.9803" lon="5.76145">
        <ele>263</ele>
        <time>2018-10-04T14:46:20Z</time>
      </trkpt>
      <trkpt lat="46.98046" lon="5.7614">
        <ele>262</ele>
        <time>2018-10-04T14:46:31Z</time>
      </trkpt>
      <trkpt lat="46.98051" lon="5.76139">
        <ele>261</ele>
        <time>2018-10-04T14:46:34Z</time>
      </trkpt>
      <trkpt lat="46.98066" lon="5.76137">
        <ele>265</ele>
        <time>2018-10-04T14:46:47Z</time>
      </trkpt>
      <trkpt lat="46.98071" lon="5.76134">
        <ele>265</ele>
        <time>2018-10-04T14:46:51Z</time>
      </trkpt>
      <trkpt lat="46.98076" lon="5.76131">
        <ele>265</ele>
        <time>2018-10-04T14:46:55Z</time>
      </trkpt>
      <trkpt lat="46.98086" lon="5.76128">
        <ele>266</ele>
        <time>2018-10-04T14:47:02Z</time>
      </trkpt>
      <trkpt lat="46.98092" lon="5.76126">
        <ele>266</ele>
        <time>2018-10-04T14:47:06Z</time>
      </trkpt>
      <trkpt lat="46.98097" lon="5.76125">
        <ele>266</ele>
        <time>2018-10-04T14:47:10Z</time>
      </trkpt>
      <trkpt lat="46.98102" lon="5.76123">
        <ele>265</ele>
        <time>2018-10-04T14:47:14Z</time>
      </trkpt>
      <trkpt lat="46.98107" lon="5.76123">
        <ele>266</ele>
        <time>2018-10-04T14:47:18Z</time>
      </trkpt>
      <trkpt lat="46.98113" lon="5.76122">
        <ele>265</ele>
        <time>2018-10-04T14:47:23Z</time>
      </trkpt>
      <trkpt lat="46.98118" lon="5.76122">
        <ele>265</ele>
        <time>2018-10-04T14:47:27Z</time>
      </trkpt>
      <trkpt lat="46.98128" lon="5.76119">
        <ele>267</ele>
        <time>2018-10-04T14:47:34Z</time>
      </trkpt>
      <trkpt lat="46.98136" lon="5.76117">
        <ele>266</ele>
        <time>2018-10-04T14:47:43Z</time>
      </trkpt>
      <trkpt lat="46.98142" lon="5.76117">
        <ele>267</ele>
        <time>2018-10-04T14:47:47Z</time>
      </trkpt>
      <trkpt lat="46.98146" lon="5.76116">
        <ele>266</ele>
        <time>2018-10-04T14:47:50Z</time>
      </trkpt>
      <trkpt lat="46.98162" lon="5.7611">
        <ele>266</ele>
        <time>2018-10-04T14:48:01Z</time>
      </trkpt>
      <trkpt lat="46.98176" lon="5.76107">
        <ele>267</ele>
        <time>2018-10-04T14:48:17Z</time>
      </trkpt>
      <trkpt lat="46.98181" lon="5.76107">
        <ele>267</ele>
        <time>2018-10-04T14:48:20Z</time>
      </trkpt>
      <trkpt lat="46.98185" lon="5.76105">
        <ele>267</ele>
        <time>2018-10-04T14:48:24Z</time>
      </trkpt>
      <trkpt lat="46.98196" lon="5.76103">
        <ele>267</ele>
        <time>2018-10-04T14:48:33Z</time>
      </trkpt>
      <trkpt lat="46.98202" lon="5.76101">
        <ele>266</ele>
        <time>2018-10-04T14:48:37Z</time>
      </trkpt>
      <trkpt lat="46.98206" lon="5.76099">
        <ele>267</ele>
        <time>2018-10-04T14:48:40Z</time>
      </trkpt>
      <trkpt lat="46.98211" lon="5.76096">
        <ele>267</ele>
        <time>2018-10-04T14:48:43Z</time>
      </trkpt>
      <trkpt lat="46.98216" lon="5.76094">
        <ele>267</ele>
        <time>2018-10-04T14:48:47Z</time>
      </trkpt>
      <trkpt lat="46.98221" lon="5.76093">
        <ele>267</ele>
        <time>2018-10-04T14:48:51Z</time>
      </trkpt>
      <trkpt lat="46.98236" lon="5.76088">
        <ele>269</ele>
        <time>2018-10-04T14:49:03Z</time>
      </trkpt>
      <trkpt lat="46.98241" lon="5.76087">
        <ele>269</ele>
        <time>2018-10-04T14:49:08Z</time>
      </trkpt>
      <trkpt lat="46.98245" lon="5.76086">
        <ele>269</ele>
        <time>2018-10-04T14:49:13Z</time>
      </trkpt>
      <trkpt lat="46.98251" lon="5.76084">
        <ele>269</ele>
        <time>2018-10-04T14:49:17Z</time>
      </trkpt>
      <trkpt lat="46.98256" lon="5.76081">
        <ele>269</ele>
        <time>2018-10-04T14:49:21Z</time>
      </trkpt>
      <trkpt lat="46.98266" lon="5.7608">
        <ele>270</ele>
        <time>2018-10-04T14:49:29Z</time>
      </trkpt>
      <trkpt lat="46.98281" lon="5.76074">
        <ele>269</ele>
        <time>2018-10-04T14:49:39Z</time>
      </trkpt>
      <trkpt lat="46.98288" lon="5.76074">
        <ele>269</ele>
        <time>2018-10-04T14:49:44Z</time>
      </trkpt>
      <trkpt lat="46.98293" lon="5.76075">
        <ele>268</ele>
        <time>2018-10-04T14:49:47Z</time>
      </trkpt>
      <trkpt lat="46.98304" lon="5.76071">
        <ele>266</ele>
        <time>2018-10-04T14:49:58Z</time>
      </trkpt>
      <trkpt lat="46.98309" lon="5.7607">
        <ele>265</ele>
        <time>2018-10-04T14:50:02Z</time>
      </trkpt>
      <trkpt lat="46.98314" lon="5.76067">
        <ele>265</ele>
        <time>2018-10-04T14:50:06Z</time>
      </trkpt>
      <trkpt lat="46.98324" lon="5.76066">
        <ele>266</ele>
        <time>2018-10-04T14:50:16Z</time>
      </trkpt>
      <trkpt lat="46.98352" lon="5.76063">
        <ele>265</ele>
        <time>2018-10-04T14:50:34Z</time>
      </trkpt>
      <trkpt lat="46.98362" lon="5.76061">
        <ele>266</ele>
        <time>2018-10-04T14:50:38Z</time>
      </trkpt>
      <trkpt lat="46.98376" lon="5.76053">
        <ele>262</ele>
        <time>2018-10-04T14:50:54Z</time>
      </trkpt>
      <trkpt lat="46.98381" lon="5.76051">
        <ele>263</ele>
        <time>2018-10-04T14:50:57Z</time>
      </trkpt>
      <trkpt lat="46.98386" lon="5.76049">
        <ele>263</ele>
        <time>2018-10-04T14:51:00Z</time>
      </trkpt>
      <trkpt lat="46.9839" lon="5.76045">
        <ele>263</ele>
        <time>2018-10-04T14:51:04Z</time>
      </trkpt>
      <trkpt lat="46.98395" lon="5.76045">
        <ele>264</ele>
        <time>2018-10-04T14:51:08Z</time>
      </trkpt>
      <trkpt lat="46.98405" lon="5.76036">
        <ele>265</ele>
        <time>2018-10-04T14:51:17Z</time>
      </trkpt>
      <trkpt lat="46.98409" lon="5.76031">
        <ele>264</ele>
        <time>2018-10-04T14:51:21Z</time>
      </trkpt>
      <trkpt lat="46.98414" lon="5.7603">
        <ele>264</ele>
        <time>2018-10-04T14:51:25Z</time>
      </trkpt>
      <trkpt lat="46.98419" lon="5.76027">
        <ele>265</ele>
        <time>2018-10-04T14:51:29Z</time>
      </trkpt>
      <trkpt lat="46.98424" lon="5.76026">
        <ele>265</ele>
        <time>2018-10-04T14:51:32Z</time>
      </trkpt>
      <trkpt lat="46.98428" lon="5.76025">
        <ele>265</ele>
        <time>2018-10-04T14:51:36Z</time>
      </trkpt>
      <trkpt lat="46.98434" lon="5.76021">
        <ele>263</ele>
        <time>2018-10-04T14:51:43Z</time>
      </trkpt>
      <trkpt lat="46.98439" lon="5.76023">
        <ele>263</ele>
        <time>2018-10-04T14:51:51Z</time>
      </trkpt>
      <trkpt lat="46.98448" lon="5.76022">
        <ele>264</ele>
        <time>2018-10-04T14:52:03Z</time>
      </trkpt>
      <trkpt lat="46.98459" lon="5.76023">
        <ele>265</ele>
        <time>2018-10-04T14:52:11Z</time>
      </trkpt>
      <trkpt lat="46.98463" lon="5.76024">
        <ele>264</ele>
        <time>2018-10-04T14:52:15Z</time>
      </trkpt>
      <trkpt lat="46.9848" lon="5.76021">
        <ele>265</ele>
        <time>2018-10-04T14:52:30Z</time>
      </trkpt>
      <trkpt lat="46.98484" lon="5.76019">
        <ele>265</ele>
        <time>2018-10-04T14:52:33Z</time>
      </trkpt>
      <trkpt lat="46.98488" lon="5.76014">
        <ele>265</ele>
        <time>2018-10-04T14:52:38Z</time>
      </trkpt>
      <trkpt lat="46.98492" lon="5.76012">
        <ele>265</ele>
        <time>2018-10-04T14:52:41Z</time>
      </trkpt>
      <trkpt lat="46.98497" lon="5.76011">
        <ele>265</ele>
        <time>2018-10-04T14:52:45Z</time>
      </trkpt>
      <trkpt lat="46.98503" lon="5.76009">
        <ele>264</ele>
        <time>2018-10-04T14:52:50Z</time>
      </trkpt>
      <trkpt lat="46.98508" lon="5.76008">
        <ele>265</ele>
        <time>2018-10-04T14:52:54Z</time>
      </trkpt>
      <trkpt lat="46.98514" lon="5.76006">
        <ele>264</ele>
        <time>2018-10-04T14:52:58Z</time>
      </trkpt>
      <trkpt lat="46.98533" lon="5.76">
        <ele>266</ele>
        <time>2018-10-04T14:53:14Z</time>
      </trkpt>
      <trkpt lat="46.98543" lon="5.75996">
        <ele>267</ele>
        <time>2018-10-04T14:53:21Z</time>
      </trkpt>
      <trkpt lat="46.98562" lon="5.75988">
        <ele>266</ele>
        <time>2018-10-04T14:53:35Z</time>
      </trkpt>
      <trkpt lat="46.9857" lon="5.7598">
        <ele>266</ele>
        <time>2018-10-04T14:53:41Z</time>
      </trkpt>
      <trkpt lat="46.98576" lon="5.75969">
        <ele>266</ele>
        <time>2018-10-04T14:53:48Z</time>
      </trkpt>
      <trkpt lat="46.98579" lon="5.75956">
        <ele>265</ele>
        <time>2018-10-04T14:53:57Z</time>
      </trkpt>
      <trkpt lat="46.98586" lon="5.75948">
        <ele>265</ele>
        <time>2018-10-04T14:54:04Z</time>
      </trkpt>
      <trkpt lat="46.98592" lon="5.75936">
        <ele>264</ele>
        <time>2018-10-04T14:54:11Z</time>
      </trkpt>
      <trkpt lat="46.98599" lon="5.75925">
        <ele>265</ele>
        <time>2018-10-04T14:54:18Z</time>
      </trkpt>
      <trkpt lat="46.98605" lon="5.75914">
        <ele>265</ele>
        <time>2018-10-04T14:54:26Z</time>
      </trkpt>
      <trkpt lat="46.9861" lon="5.75902">
        <ele>266</ele>
        <time>2018-10-04T14:54:35Z</time>
      </trkpt>
      <trkpt lat="46.98623" lon="5.7588">
        <ele>266</ele>
        <time>2018-10-04T14:54:48Z</time>
      </trkpt>
      <trkpt lat="46.98634" lon="5.75855">
        <ele>264</ele>
        <time>2018-10-04T14:55:01Z</time>
      </trkpt>
      <trkpt lat="46.98642" lon="5.75848">
        <ele>263</ele>
        <time>2018-10-04T14:55:07Z</time>
      </trkpt>
      <trkpt lat="46.98648" lon="5.75838">
        <ele>263</ele>
        <time>2018-10-04T14:55:16Z</time>
      </trkpt>
      <trkpt lat="46.98653" lon="5.75833">
        <ele>263</ele>
        <time>2018-10-04T14:55:20Z</time>
      </trkpt>
      <trkpt lat="46.98656" lon="5.75829">
        <ele>262</ele>
        <time>2018-10-04T14:55:23Z</time>
      </trkpt>
      <trkpt lat="46.98658" lon="5.75823">
        <ele>263</ele>
        <time>2018-10-04T14:55:28Z</time>
      </trkpt>
      <trkpt lat="46.98661" lon="5.75816">
        <ele>262</ele>
        <time>2018-10-04T14:55:33Z</time>
      </trkpt>
      <trkpt lat="46.98666" lon="5.75809">
        <ele>262</ele>
        <time>2018-10-04T14:55:37Z</time>
      </trkpt>
      <trkpt lat="46.98672" lon="5.75794">
        <ele>264</ele>
        <time>2018-10-04T14:55:51Z</time>
      </trkpt>
      <trkpt lat="46.98677" lon="5.7579">
        <ele>264</ele>
        <time>2018-10-04T14:55:55Z</time>
      </trkpt>
      <trkpt lat="46.9869" lon="5.75778">
        <ele>261</ele>
        <time>2018-10-04T14:56:06Z</time>
      </trkpt>
      <trkpt lat="46.98694" lon="5.75773">
        <ele>261</ele>
        <time>2018-10-04T14:56:09Z</time>
      </trkpt>
      <trkpt lat="46.98697" lon="5.7577">
        <ele>262</ele>
        <time>2018-10-04T14:56:14Z</time>
      </trkpt>
      <trkpt lat="46.98702" lon="5.75767">
        <ele>262</ele>
        <time>2018-10-04T14:56:18Z</time>
      </trkpt>
      <trkpt lat="46.98706" lon="5.75763">
        <ele>262</ele>
        <time>2018-10-04T14:56:22Z</time>
      </trkpt>
      <trkpt lat="46.98711" lon="5.75755">
        <ele>260</ele>
        <time>2018-10-04T14:56:30Z</time>
      </trkpt>
      <trkpt lat="46.98716" lon="5.7575">
        <ele>260</ele>
        <time>2018-10-04T14:56:34Z</time>
      </trkpt>
      <trkpt lat="46.9872" lon="5.75746">
        <ele>259</ele>
        <time>2018-10-04T14:56:38Z</time>
      </trkpt>
      <trkpt lat="46.98725" lon="5.75741">
        <ele>259</ele>
        <time>2018-10-04T14:56:41Z</time>
      </trkpt>
      <trkpt lat="46.9873" lon="5.75737">
        <ele>259</ele>
        <time>2018-10-04T14:56:44Z</time>
      </trkpt>
      <trkpt lat="46.98738" lon="5.75729">
        <ele>257</ele>
        <time>2018-10-04T14:56:50Z</time>
      </trkpt>
      <trkpt lat="46.98742" lon="5.75724">
        <ele>257</ele>
        <time>2018-10-04T14:56:54Z</time>
      </trkpt>
      <trkpt lat="46.98747" lon="5.75719">
        <ele>258</ele>
        <time>2018-10-04T14:56:58Z</time>
      </trkpt>
      <trkpt lat="46.98751" lon="5.75716">
        <ele>257</ele>
        <time>2018-10-04T14:57:01Z</time>
      </trkpt>
      <trkpt lat="46.98754" lon="5.75709">
        <ele>257</ele>
        <time>2018-10-04T14:57:06Z</time>
      </trkpt>
      <trkpt lat="46.98759" lon="5.75704">
        <ele>257</ele>
        <time>2018-10-04T14:57:09Z</time>
      </trkpt>
      <trkpt lat="46.98764" lon="5.75701">
        <ele>257</ele>
        <time>2018-10-04T14:57:12Z</time>
      </trkpt>
      <trkpt lat="46.98769" lon="5.75698">
        <ele>257</ele>
        <time>2018-10-04T14:57:16Z</time>
      </trkpt>
      <trkpt lat="46.98773" lon="5.75694">
        <ele>257</ele>
        <time>2018-10-04T14:57:20Z</time>
      </trkpt>
      <trkpt lat="46.98777" lon="5.7569">
        <ele>257</ele>
        <time>2018-10-04T14:57:23Z</time>
      </trkpt>
      <trkpt lat="46.98788" lon="5.75677">
        <ele>255</ele>
        <time>2018-10-04T14:57:34Z</time>
      </trkpt>
      <trkpt lat="46.98791" lon="5.75672">
        <ele>256</ele>
        <time>2018-10-04T14:57:39Z</time>
      </trkpt>
      <trkpt lat="46.98801" lon="5.75661">
        <ele>252</ele>
        <time>2018-10-04T14:57:51Z</time>
      </trkpt>
      <trkpt lat="46.98805" lon="5.75656">
        <ele>252</ele>
        <time>2018-10-04T14:57:56Z</time>
      </trkpt>
      <trkpt lat="46.98809" lon="5.75654">
        <ele>252</ele>
        <time>2018-10-04T14:57:59Z</time>
      </trkpt>
      <trkpt lat="46.98812" lon="5.7565">
        <ele>251</ele>
        <time>2018-10-04T14:58:03Z</time>
      </trkpt>
      <trkpt lat="46.98816" lon="5.75644">
        <ele>251</ele>
        <time>2018-10-04T14:58:07Z</time>
      </trkpt>
      <trkpt lat="46.98821" lon="5.75636">
        <ele>252</ele>
        <time>2018-10-04T14:58:14Z</time>
      </trkpt>
      <trkpt lat="46.98825" lon="5.75631">
        <ele>251</ele>
        <time>2018-10-04T14:58:18Z</time>
      </trkpt>
      <trkpt lat="46.98834" lon="5.75625">
        <ele>251</ele>
        <time>2018-10-04T14:58:25Z</time>
      </trkpt>
      <trkpt lat="46.98837" lon="5.7562">
        <ele>252</ele>
        <time>2018-10-04T14:58:28Z</time>
      </trkpt>
      <trkpt lat="46.98842" lon="5.75616">
        <ele>252</ele>
        <time>2018-10-04T14:58:32Z</time>
      </trkpt>
      <trkpt lat="46.9885" lon="5.75603">
        <ele>251</ele>
        <time>2018-10-04T14:58:43Z</time>
      </trkpt>
      <trkpt lat="46.98855" lon="5.75599">
        <ele>250</ele>
        <time>2018-10-04T14:58:46Z</time>
      </trkpt>
      <trkpt lat="46.98859" lon="5.75597">
        <ele>250</ele>
        <time>2018-10-04T14:58:49Z</time>
      </trkpt>
      <trkpt lat="46.98863" lon="5.75596">
        <ele>251</ele>
        <time>2018-10-04T14:58:53Z</time>
      </trkpt>
      <trkpt lat="46.98873" lon="5.7559">
        <ele>251</ele>
        <time>2018-10-04T14:59:00Z</time>
      </trkpt>
      <trkpt lat="46.98877" lon="5.75589">
        <ele>251</ele>
        <time>2018-10-04T14:59:03Z</time>
      </trkpt>
      <trkpt lat="46.98882" lon="5.75588">
        <ele>250</ele>
        <time>2018-10-04T14:59:08Z</time>
      </trkpt>
      <trkpt lat="46.98897" lon="5.75588">
        <ele>251</ele>
        <time>2018-10-04T14:59:23Z</time>
      </trkpt>
      <trkpt lat="46.98902" lon="5.75587">
        <ele>251</ele>
        <time>2018-10-04T14:59:27Z</time>
      </trkpt>
      <trkpt lat="46.98907" lon="5.75585">
        <ele>251</ele>
        <time>2018-10-04T14:59:32Z</time>
      </trkpt>
      <trkpt lat="46.98913" lon="5.75585">
        <ele>252</ele>
        <time>2018-10-04T14:59:38Z</time>
      </trkpt>
      <trkpt lat="46.98918" lon="5.75585">
        <ele>252</ele>
        <time>2018-10-04T14:59:43Z</time>
      </trkpt>
      <trkpt lat="46.98922" lon="5.75588">
        <ele>252</ele>
        <time>2018-10-04T14:59:47Z</time>
      </trkpt>
      <trkpt lat="46.98928" lon="5.75587">
        <ele>252</ele>
        <time>2018-10-04T14:59:51Z</time>
      </trkpt>
      <trkpt lat="46.98933" lon="5.75586">
        <ele>252</ele>
        <time>2018-10-04T14:59:55Z</time>
      </trkpt>
      <trkpt lat="46.98938" lon="5.75583">
        <ele>252</ele>
        <time>2018-10-04T14:59:58Z</time>
      </trkpt>
      <trkpt lat="46.98943" lon="5.75581">
        <ele>252</ele>
        <time>2018-10-04T15:00:01Z</time>
      </trkpt>
      <trkpt lat="46.98947" lon="5.75581">
        <ele>253</ele>
        <time>2018-10-04T15:00:04Z</time>
      </trkpt>
      <trkpt lat="46.98952" lon="5.7558">
        <ele>253</ele>
        <time>2018-10-04T15:00:08Z</time>
      </trkpt>
      <trkpt lat="46.98967" lon="5.7558">
        <ele>254</ele>
        <time>2018-10-04T15:00:20Z</time>
      </trkpt>
      <trkpt lat="46.98977" lon="5.75576">
        <ele>254</ele>
        <time>2018-10-04T15:00:29Z</time>
      </trkpt>
      <trkpt lat="46.98982" lon="5.75576">
        <ele>255</ele>
        <time>2018-10-04T15:00:34Z</time>
      </trkpt>
      <trkpt lat="46.99007" lon="5.75577">
        <ele>256</ele>
        <time>2018-10-04T15:00:54Z</time>
      </trkpt>
      <trkpt lat="46.99012" lon="5.75577">
        <ele>255</ele>
        <time>2018-10-04T15:00:58Z</time>
      </trkpt>
      <trkpt lat="46.99017" lon="5.75578">
        <ele>255</ele>
        <time>2018-10-04T15:01:01Z</time>
      </trkpt>
      <trkpt lat="46.99025" lon="5.75575">
        <ele>255</ele>
        <time>2018-10-04T15:01:09Z</time>
      </trkpt>
      <trkpt lat="46.99031" lon="5.75575">
        <ele>255</ele>
        <time>2018-10-04T15:01:14Z</time>
      </trkpt>
      <trkpt lat="46.99042" lon="5.75575">
        <ele>256</ele>
        <time>2018-10-04T15:01:21Z</time>
      </trkpt>
      <trkpt lat="46.99058" lon="5.75573">
        <ele>255</ele>
        <time>2018-10-04T15:01:34Z</time>
      </trkpt>
      <trkpt lat="46.99063" lon="5.75573">
        <ele>255</ele>
        <time>2018-10-04T15:01:38Z</time>
      </trkpt>
      <trkpt lat="46.99074" lon="5.75572">
        <ele>256</ele>
        <time>2018-10-04T15:01:46Z</time>
      </trkpt>
      <trkpt lat="46.99079" lon="5.75571">
        <ele>256</ele>
        <time>2018-10-04T15:01:50Z</time>
      </trkpt>
      <trkpt lat="46.9909" lon="5.75571">
        <ele>256</ele>
        <time>2018-10-04T15:01:59Z</time>
      </trkpt>
      <trkpt lat="46.99095" lon="5.75569">
        <ele>256</ele>
        <time>2018-10-04T15:02:03Z</time>
      </trkpt>
      <trkpt lat="46.991" lon="5.75571">
        <ele>256</ele>
        <time>2018-10-04T15:02:07Z</time>
      </trkpt>
      <trkpt lat="46.99105" lon="5.7557">
        <ele>256</ele>
        <time>2018-10-04T15:02:11Z</time>
      </trkpt>
      <trkpt lat="46.9911" lon="5.75568">
        <ele>255</ele>
        <time>2018-10-04T15:02:15Z</time>
      </trkpt>
      <trkpt lat="46.99116" lon="5.75568">
        <ele>255</ele>
        <time>2018-10-04T15:02:19Z</time>
      </trkpt>
      <trkpt lat="46.99131" lon="5.75567">
        <ele>255</ele>
        <time>2018-10-04T15:02:32Z</time>
      </trkpt>
      <trkpt lat="46.99181" lon="5.7556">
        <ele>247</ele>
        <time>2018-10-04T15:03:06Z</time>
      </trkpt>
      <trkpt lat="46.99186" lon="5.75559">
        <ele>246</ele>
        <time>2018-10-04T15:03:09Z</time>
      </trkpt>
      <trkpt lat="46.99196" lon="5.75559">
        <ele>248</ele>
        <time>2018-10-04T15:03:17Z</time>
      </trkpt>
      <trkpt lat="46.99206" lon="5.75558">
        <ele>247</ele>
        <time>2018-10-04T15:03:25Z</time>
      </trkpt>
      <trkpt lat="46.99212" lon="5.75556">
        <ele>247</ele>
        <time>2018-10-04T15:03:29Z</time>
      </trkpt>
      <trkpt lat="46.99217" lon="5.75554">
        <ele>247</ele>
        <time>2018-10-04T15:03:33Z</time>
      </trkpt>
      <trkpt lat="46.99221" lon="5.75552">
        <ele>247</ele>
        <time>2018-10-04T15:03:36Z</time>
      </trkpt>
      <trkpt lat="46.99233" lon="5.75553">
        <ele>248</ele>
        <time>2018-10-04T15:03:47Z</time>
      </trkpt>
      <trkpt lat="46.99238" lon="5.75552">
        <ele>248</ele>
        <time>2018-10-04T15:03:52Z</time>
      </trkpt>
      <trkpt lat="46.99259" lon="5.75554">
        <ele>252</ele>
        <time>2018-10-04T15:04:09Z</time>
      </trkpt>
      <trkpt lat="46.99268" lon="5.75557">
        <ele>251</ele>
        <time>2018-10-04T15:04:16Z</time>
      </trkpt>
      <trkpt lat="46.99279" lon="5.75556">
        <ele>252</ele>
        <time>2018-10-04T15:04:28Z</time>
      </trkpt>
      <trkpt lat="46.9929" lon="5.75562">
        <ele>251</ele>
        <time>2018-10-04T15:04:37Z</time>
      </trkpt>
      <trkpt lat="46.99294" lon="5.75567">
        <ele>250</ele>
        <time>2018-10-04T15:04:41Z</time>
      </trkpt>
      <trkpt lat="46.99298" lon="5.7557">
        <ele>250</ele>
        <time>2018-10-04T15:04:43Z</time>
      </trkpt>
      <trkpt lat="46.99308" lon="5.75575">
        <ele>252</ele>
        <time>2018-10-04T15:04:50Z</time>
      </trkpt>
      <trkpt lat="46.99319" lon="5.7559">
        <ele>252</ele>
        <time>2018-10-04T15:05:00Z</time>
      </trkpt>
      <trkpt lat="46.99326" lon="5.75596">
        <ele>253</ele>
        <time>2018-10-04T15:05:08Z</time>
      </trkpt>
      <trkpt lat="46.9933" lon="5.75603">
        <ele>254</ele>
        <time>2018-10-04T15:05:15Z</time>
      </trkpt>
      <trkpt lat="46.99336" lon="5.75606">
        <ele>255</ele>
        <time>2018-10-04T15:05:21Z</time>
      </trkpt>
      <trkpt lat="46.9934" lon="5.75608">
        <ele>255</ele>
        <time>2018-10-04T15:05:24Z</time>
      </trkpt>
      <trkpt lat="46.99345" lon="5.75612">
        <ele>255</ele>
        <time>2018-10-04T15:05:27Z</time>
      </trkpt>
      <trkpt lat="46.99349" lon="5.75614">
        <ele>256</ele>
        <time>2018-10-04T15:05:30Z</time>
      </trkpt>
      <trkpt lat="46.99355" lon="5.75616">
        <ele>256</ele>
        <time>2018-10-04T15:05:33Z</time>
      </trkpt>
      <trkpt lat="46.99359" lon="5.75617">
        <ele>255</ele>
        <time>2018-10-04T15:05:36Z</time>
      </trkpt>
      <trkpt lat="46.99368" lon="5.75625">
        <ele>253</ele>
        <time>2018-10-04T15:05:43Z</time>
      </trkpt>
      <trkpt lat="46.99372" lon="5.7563">
        <ele>252</ele>
        <time>2018-10-04T15:05:47Z</time>
      </trkpt>
      <trkpt lat="46.99376" lon="5.75634">
        <ele>252</ele>
        <time>2018-10-04T15:05:50Z</time>
      </trkpt>
      <trkpt lat="46.9938" lon="5.75637">
        <ele>251</ele>
        <time>2018-10-04T15:05:54Z</time>
      </trkpt>
      <trkpt lat="46.99384" lon="5.75641">
        <ele>251</ele>
        <time>2018-10-04T15:05:58Z</time>
      </trkpt>
      <trkpt lat="46.99398" lon="5.75649">
        <ele>250</ele>
        <time>2018-10-04T15:06:21Z</time>
      </trkpt>
      <trkpt lat="46.99401" lon="5.75655">
        <ele>250</ele>
        <time>2018-10-04T15:06:28Z</time>
      </trkpt>
      <trkpt lat="46.99409" lon="5.75659">
        <ele>249</ele>
        <time>2018-10-04T15:06:36Z</time>
      </trkpt>
      <trkpt lat="46.99413" lon="5.75659">
        <ele>249</ele>
        <time>2018-10-04T15:06:40Z</time>
      </trkpt>
      <trkpt lat="46.99421" lon="5.75655">
        <ele>249</ele>
        <time>2018-10-04T15:06:48Z</time>
      </trkpt>
      <trkpt lat="46.99435" lon="5.75651">
        <ele>249</ele>
        <time>2018-10-04T15:07:01Z</time>
      </trkpt>
      <trkpt lat="46.99439" lon="5.75649">
        <ele>249</ele>
        <time>2018-10-04T15:07:06Z</time>
      </trkpt>
      <trkpt lat="46.99444" lon="5.75645">
        <ele>249</ele>
        <time>2018-10-04T15:07:10Z</time>
      </trkpt>
      <trkpt lat="46.99449" lon="5.75642">
        <ele>249</ele>
        <time>2018-10-04T15:07:14Z</time>
      </trkpt>
      <trkpt lat="46.99454" lon="5.75637">
        <ele>248</ele>
        <time>2018-10-04T15:07:38Z</time>
      </trkpt>
      <trkpt lat="46.99457" lon="5.75632">
        <ele>247</ele>
        <time>2018-10-04T15:07:44Z</time>
      </trkpt>
      <trkpt lat="46.9948" lon="5.75619">
        <ele>248</ele>
        <time>2018-10-04T15:08:01Z</time>
      </trkpt>
      <trkpt lat="46.99485" lon="5.75609">
        <ele>247</ele>
        <time>2018-10-04T15:08:10Z</time>
      </trkpt>
      <trkpt lat="46.99489" lon="5.75603">
        <ele>246</ele>
        <time>2018-10-04T15:08:15Z</time>
      </trkpt>
      <trkpt lat="46.99492" lon="5.75599">
        <ele>246</ele>
        <time>2018-10-04T15:08:19Z</time>
      </trkpt>
      <trkpt lat="46.99497" lon="5.75594">
        <ele>246</ele>
        <time>2018-10-04T15:08:26Z</time>
      </trkpt>
      <trkpt lat="46.99502" lon="5.75591">
        <ele>246</ele>
        <time>2018-10-04T15:08:30Z</time>
      </trkpt>
      <trkpt lat="46.99506" lon="5.75586">
        <ele>245</ele>
        <time>2018-10-04T15:08:36Z</time>
      </trkpt>
      <trkpt lat="46.99527" lon="5.75562">
        <ele>246</ele>
        <time>2018-10-04T15:09:00Z</time>
      </trkpt>
      <trkpt lat="46.9953" lon="5.75557">
        <ele>246</ele>
        <time>2018-10-04T15:09:04Z</time>
      </trkpt>
      <trkpt lat="46.99534" lon="5.75551">
        <ele>246</ele>
        <time>2018-10-04T15:09:09Z</time>
      </trkpt>
      <trkpt lat="46.99537" lon="5.75546">
        <ele>246</ele>
        <time>2018-10-04T15:09:13Z</time>
      </trkpt>
      <trkpt lat="46.99541" lon="5.75541">
        <ele>245</ele>
        <time>2018-10-04T15:09:17Z</time>
      </trkpt>
      <trkpt lat="46.99543" lon="5.75535">
        <ele>246</ele>
        <time>2018-10-04T15:09:22Z</time>
      </trkpt>
      <trkpt lat="46.99548" lon="5.75533">
        <ele>246</ele>
        <time>2018-10-04T15:09:35Z</time>
      </trkpt>
      <trkpt lat="46.99555" lon="5.75523">
        <ele>247</ele>
        <time>2018-10-04T15:09:44Z</time>
      </trkpt>
      <trkpt lat="46.99559" lon="5.75518">
        <ele>247</ele>
        <time>2018-10-04T15:09:48Z</time>
      </trkpt>
      <trkpt lat="46.9956" lon="5.7551">
        <ele>248</ele>
        <time>2018-10-04T15:09:54Z</time>
      </trkpt>
      <trkpt lat="46.99563" lon="5.75503">
        <ele>248</ele>
        <time>2018-10-04T15:09:59Z</time>
      </trkpt>
      <trkpt lat="46.9957" lon="5.75491">
        <ele>247</ele>
        <time>2018-10-04T15:10:06Z</time>
      </trkpt>
      <trkpt lat="46.99573" lon="5.75485">
        <ele>248</ele>
        <time>2018-10-04T15:10:10Z</time>
      </trkpt>
      <trkpt lat="46.99579" lon="5.75474">
        <ele>247</ele>
        <time>2018-10-04T15:10:18Z</time>
      </trkpt>
      <trkpt lat="46.99583" lon="5.75469">
        <ele>247</ele>
        <time>2018-10-04T15:10:21Z</time>
      </trkpt>
      <trkpt lat="46.99585" lon="5.75464">
        <ele>247</ele>
        <time>2018-10-04T15:10:25Z</time>
      </trkpt>
      <trkpt lat="46.99588" lon="5.75457">
        <ele>247</ele>
        <time>2018-10-04T15:10:29Z</time>
      </trkpt>
      <trkpt lat="46.99594" lon="5.75445">
        <ele>246</ele>
        <time>2018-10-04T15:10:38Z</time>
      </trkpt>
      <trkpt lat="46.99598" lon="5.75441">
        <ele>245</ele>
        <time>2018-10-04T15:10:42Z</time>
      </trkpt>
      <trkpt lat="46.99601" lon="5.75435">
        <ele>245</ele>
        <time>2018-10-04T15:10:46Z</time>
      </trkpt>
      <trkpt lat="46.99605" lon="5.75431">
        <ele>245</ele>
        <time>2018-10-04T15:10:50Z</time>
      </trkpt>
      <trkpt lat="46.99609" lon="5.75427">
        <ele>244</ele>
        <time>2018-10-04T15:10:54Z</time>
      </trkpt>
      <trkpt lat="46.99618" lon="5.75419">
        <ele>243</ele>
        <time>2018-10-04T15:11:02Z</time>
      </trkpt>
      <trkpt lat="46.99622" lon="5.75415">
        <ele>243</ele>
        <time>2018-10-04T15:11:06Z</time>
      </trkpt>
      <trkpt lat="46.99626" lon="5.75412">
        <ele>243</ele>
        <time>2018-10-04T15:11:10Z</time>
      </trkpt>
      <trkpt lat="46.99631" lon="5.75408">
        <ele>243</ele>
        <time>2018-10-04T15:11:14Z</time>
      </trkpt>
      <trkpt lat="46.9964" lon="5.75401">
        <ele>243</ele>
        <time>2018-10-04T15:11:23Z</time>
      </trkpt>
      <trkpt lat="46.99644" lon="5.75399">
        <ele>243</ele>
        <time>2018-10-04T15:11:26Z</time>
      </trkpt>
      <trkpt lat="46.9966" lon="5.75393">
        <ele>244</ele>
        <time>2018-10-04T15:11:40Z</time>
      </trkpt>
      <trkpt lat="46.99665" lon="5.75392">
        <ele>244</ele>
        <time>2018-10-04T15:11:44Z</time>
      </trkpt>
      <trkpt lat="46.99679" lon="5.75389">
        <ele>244</ele>
        <time>2018-10-04T15:11:56Z</time>
      </trkpt>
      <trkpt lat="46.99695" lon="5.75387">
        <ele>244</ele>
        <time>2018-10-04T15:12:08Z</time>
      </trkpt>
      <trkpt lat="46.997" lon="5.75384">
        <ele>244</ele>
        <time>2018-10-04T15:12:12Z</time>
      </trkpt>
      <trkpt lat="46.9972" lon="5.75381">
        <ele>243</ele>
        <time>2018-10-04T15:12:28Z</time>
      </trkpt>
      <trkpt lat="46.9973" lon="5.75377">
        <ele>242</ele>
        <time>2018-10-04T15:12:37Z</time>
      </trkpt>
      <trkpt lat="46.9974" lon="5.75372">
        <ele>243</ele>
        <time>2018-10-04T15:12:46Z</time>
      </trkpt>
      <trkpt lat="46.99768" lon="5.75358">
        <ele>241</ele>
        <time>2018-10-04T15:13:10Z</time>
      </trkpt>
      <trkpt lat="46.99772" lon="5.75355">
        <ele>241</ele>
        <time>2018-10-04T15:13:14Z</time>
      </trkpt>
      <trkpt lat="46.99776" lon="5.75353">
        <ele>241</ele>
        <time>2018-10-04T15:13:18Z</time>
      </trkpt>
      <trkpt lat="46.99781" lon="5.75349">
        <ele>241</ele>
        <time>2018-10-04T15:13:22Z</time>
      </trkpt>
      <trkpt lat="46.99808" lon="5.75325">
        <ele>239</ele>
        <time>2018-10-04T15:13:45Z</time>
      </trkpt>
      <trkpt lat="46.99812" lon="5.75322">
        <ele>240</ele>
        <time>2018-10-04T15:13:48Z</time>
      </trkpt>
      <trkpt lat="46.99816" lon="5.75317">
        <ele>240</ele>
        <time>2018-10-04T15:13:52Z</time>
      </trkpt>
      <trkpt lat="46.99819" lon="5.7531">
        <ele>239</ele>
        <time>2018-10-04T15:13:56Z</time>
      </trkpt>
      <trkpt lat="46.99822" lon="5.75306">
        <ele>239</ele>
        <time>2018-10-04T15:14:00Z</time>
      </trkpt>
      <trkpt lat="46.99826" lon="5.75301">
        <ele>239</ele>
        <time>2018-10-04T15:14:04Z</time>
      </trkpt>
      <trkpt lat="46.99833" lon="5.75291">
        <ele>238</ele>
        <time>2018-10-04T15:14:12Z</time>
      </trkpt>
      <trkpt lat="46.99842" lon="5.75271">
        <ele>238</ele>
        <time>2018-10-04T15:14:28Z</time>
      </trkpt>
      <trkpt lat="46.99848" lon="5.7526">
        <ele>236</ele>
        <time>2018-10-04T15:14:37Z</time>
      </trkpt>
      <trkpt lat="46.99852" lon="5.75255">
        <ele>236</ele>
        <time>2018-10-04T15:14:42Z</time>
      </trkpt>
      <trkpt lat="46.99859" lon="5.75243">
        <ele>235</ele>
        <time>2018-10-04T15:14:52Z</time>
      </trkpt>
      <trkpt lat="46.9987" lon="5.75224">
        <ele>231</ele>
        <time>2018-10-04T15:15:10Z</time>
      </trkpt>
      <trkpt lat="46.99873" lon="5.75218">
        <ele>232</ele>
        <time>2018-10-04T15:15:18Z</time>
      </trkpt>
      <trkpt lat="46.99877" lon="5.75214">
        <ele>232</ele>
        <time>2018-10-04T15:15:23Z</time>
      </trkpt>
      <trkpt lat="46.99881" lon="5.7521">
        <ele>232</ele>
        <time>2018-10-04T15:15:28Z</time>
      </trkpt>
      <trkpt lat="46.99886" lon="5.75207">
        <ele>231</ele>
        <time>2018-10-04T15:15:36Z</time>
      </trkpt>
      <trkpt lat="46.99886" lon="5.752">
        <ele>231</ele>
        <time>2018-10-04T15:15:41Z</time>
      </trkpt>
      <trkpt lat="46.99888" lon="5.75193">
        <ele>229</ele>
        <time>2018-10-04T15:16:07Z</time>
      </trkpt>
      <trkpt lat="46.99888" lon="5.75185">
        <ele>229</ele>
        <time>2018-10-04T15:16:13Z</time>
      </trkpt>
      <trkpt lat="46.9989" lon="5.75179">
        <ele>229</ele>
        <time>2018-10-04T15:16:18Z</time>
      </trkpt>
      <trkpt lat="46.99893" lon="5.75175">
        <ele>229</ele>
        <time>2018-10-04T15:16:50Z</time>
      </trkpt>
      <trkpt lat="46.99894" lon="5.75163">
        <ele>229</ele>
        <time>2018-10-04T15:17:01Z</time>
      </trkpt>
      <trkpt lat="46.99896" lon="5.75157">
        <ele>231</ele>
        <time>2018-10-04T15:17:05Z</time>
      </trkpt>
      <trkpt lat="46.999" lon="5.75151">
        <ele>231</ele>
        <time>2018-10-04T15:17:14Z</time>
      </trkpt>
    </trkseg>
  </trk>
</gpx>